<?xml version="1.0" encoding="UTF-8" standalone="no" ?>
<gpx xmlns="http://www.topografix.com/GPX/1/1" xmlns:xsi="http://www.w3.org/2001/XMLSchema-instance" xsi:schemaLocation="http://www.topografix.com/GPX/1/1 http://www.topografix.com/GPX/1/1/gpx.xsd" version="1.1" creator="VisuGPX - https://www.visugpx.com">
  <metadata>
    <name>phalempin 2025</name>
  </metadata>
  <trk>
    <name><![CDATA[2025_JL_53-22605225]]></name>
    <trkseg>
      <trkpt lat="50.51781" lon="3.0186">
        <ele>35</ele>
        <time>2025-10-17T09:01:14Z</time>
      </trkpt>
      <trkpt lat="50.51733" lon="3.01808">
        <ele>35</ele>
        <time>2025-10-17T09:01:28Z</time>
      </trkpt>
      <trkpt lat="50.51719" lon="3.01786">
        <ele>36</ele>
        <time>2025-10-17T09:01:32Z</time>
      </trkpt>
      <trkpt lat="50.51715" lon="3.01775">
        <ele>36</ele>
        <time>2025-10-17T09:01:34Z</time>
      </trkpt>
      <trkpt lat="50.51715" lon="3.01768">
        <ele>36</ele>
        <time>2025-10-17T09:01:35Z</time>
      </trkpt>
      <trkpt lat="50.5171" lon="3.01757">
        <ele>36</ele>
        <time>2025-10-17T09:01:37Z</time>
      </trkpt>
      <trkpt lat="50.51704" lon="3.01754">
        <ele>36</ele>
        <time>2025-10-17T09:01:39Z</time>
      </trkpt>
      <trkpt lat="50.51696" lon="3.01759">
        <ele>36</ele>
        <time>2025-10-17T09:01:41Z</time>
      </trkpt>
      <trkpt lat="50.5168" lon="3.01758">
        <ele>36</ele>
        <time>2025-10-17T09:01:44Z</time>
      </trkpt>
      <trkpt lat="50.51646" lon="3.01718">
        <ele>36</ele>
        <time>2025-10-17T09:01:54Z</time>
      </trkpt>
      <trkpt lat="50.51611" lon="3.01656">
        <ele>36</ele>
        <time>2025-10-17T09:02:07Z</time>
      </trkpt>
      <trkpt lat="50.51601" lon="3.01647">
        <ele>36</ele>
        <time>2025-10-17T09:02:09Z</time>
      </trkpt>
      <trkpt lat="50.51595" lon="3.01622">
        <ele>35</ele>
        <time>2025-10-17T09:02:13Z</time>
      </trkpt>
      <trkpt lat="50.5151" lon="3.01509">
        <ele>33</ele>
        <time>2025-10-17T09:02:39Z</time>
      </trkpt>
      <trkpt lat="50.51452" lon="3.01365">
        <ele>33</ele>
        <time>2025-10-17T09:03:05Z</time>
      </trkpt>
      <trkpt lat="50.51368" lon="3.01113">
        <ele>32</ele>
        <time>2025-10-17T09:03:47Z</time>
      </trkpt>
      <trkpt lat="50.5134" lon="3.01039">
        <ele>31</ele>
        <time>2025-10-17T09:04:00Z</time>
      </trkpt>
      <trkpt lat="50.51333" lon="3.01008">
        <ele>30</ele>
        <time>2025-10-17T09:04:04Z</time>
      </trkpt>
      <trkpt lat="50.51315" lon="3.00949">
        <ele>29</ele>
        <time>2025-10-17T09:04:14Z</time>
      </trkpt>
      <trkpt lat="50.51216" lon="3.00692">
        <ele>27</ele>
        <time>2025-10-17T09:04:59Z</time>
      </trkpt>
      <trkpt lat="50.51236" lon="3.00628">
        <ele>27</ele>
        <time>2025-10-17T09:05:09Z</time>
      </trkpt>
      <trkpt lat="50.51253" lon="3.00562">
        <ele>27</ele>
        <time>2025-10-17T09:05:20Z</time>
      </trkpt>
      <trkpt lat="50.51244" lon="3.00547">
        <ele>27</ele>
        <time>2025-10-17T09:05:23Z</time>
      </trkpt>
      <trkpt lat="50.51156" lon="3.00288">
        <ele>28</ele>
        <time>2025-10-17T09:06:07Z</time>
      </trkpt>
      <trkpt lat="50.51138" lon="3.00229">
        <ele>28</ele>
        <time>2025-10-17T09:06:16Z</time>
      </trkpt>
      <trkpt lat="50.51132" lon="3.00202">
        <ele>28</ele>
        <time>2025-10-17T09:06:21Z</time>
      </trkpt>
      <trkpt lat="50.51121" lon="3.00118">
        <ele>28</ele>
        <time>2025-10-17T09:06:33Z</time>
      </trkpt>
      <trkpt lat="50.51084" lon="3">
        <ele>29</ele>
        <time>2025-10-17T09:06:53Z</time>
      </trkpt>
      <trkpt lat="50.51066" lon="2.9991">
        <ele>29</ele>
        <time>2025-10-17T09:07:07Z</time>
      </trkpt>
      <trkpt lat="50.51042" lon="2.9989">
        <ele>28</ele>
        <time>2025-10-17T09:07:13Z</time>
      </trkpt>
      <trkpt lat="50.51001" lon="2.99864">
        <ele>28</ele>
        <time>2025-10-17T09:07:24Z</time>
      </trkpt>
      <trkpt lat="50.50964" lon="2.99847">
        <ele>29</ele>
        <time>2025-10-17T09:07:33Z</time>
      </trkpt>
      <trkpt lat="50.50925" lon="2.99817">
        <ele>29</ele>
        <time>2025-10-17T09:07:43Z</time>
      </trkpt>
      <trkpt lat="50.50896" lon="2.99813">
        <ele>28</ele>
        <time>2025-10-17T09:07:50Z</time>
      </trkpt>
      <trkpt lat="50.5085" lon="2.9973">
        <ele>27</ele>
        <time>2025-10-17T09:08:06Z</time>
      </trkpt>
      <trkpt lat="50.5079" lon="2.99594">
        <ele>28</ele>
        <time>2025-10-17T09:08:30Z</time>
      </trkpt>
      <trkpt lat="50.5079" lon="2.99555">
        <ele>28</ele>
        <time>2025-10-17T09:08:36Z</time>
      </trkpt>
      <trkpt lat="50.50762" lon="2.99544">
        <ele>29</ele>
        <time>2025-10-17T09:08:43Z</time>
      </trkpt>
      <trkpt lat="50.50598" lon="2.99499">
        <ele>30</ele>
        <time>2025-10-17T09:09:22Z</time>
      </trkpt>
      <trkpt lat="50.5059" lon="2.99504">
        <ele>30</ele>
        <time>2025-10-17T09:09:24Z</time>
      </trkpt>
      <trkpt lat="50.50564" lon="2.99601">
        <ele>31</ele>
        <time>2025-10-17T09:09:40Z</time>
      </trkpt>
      <trkpt lat="50.50548" lon="2.99615">
        <ele>32</ele>
        <time>2025-10-17T09:09:44Z</time>
      </trkpt>
      <trkpt lat="50.50544" lon="2.9959">
        <ele>32</ele>
        <time>2025-10-17T09:09:48Z</time>
      </trkpt>
      <trkpt lat="50.505" lon="2.99509">
        <ele>33</ele>
        <time>2025-10-17T09:10:03Z</time>
      </trkpt>
      <trkpt lat="50.50571" lon="2.99365">
        <ele>31</ele>
        <time>2025-10-17T09:10:31Z</time>
      </trkpt>
      <trkpt lat="50.50595" lon="2.99325">
        <ele>31</ele>
        <time>2025-10-17T09:10:39Z</time>
      </trkpt>
      <trkpt lat="50.50642" lon="2.99265">
        <ele>31</ele>
        <time>2025-10-17T09:10:53Z</time>
      </trkpt>
      <trkpt lat="50.50682" lon="2.99191">
        <ele>31</ele>
        <time>2025-10-17T09:11:07Z</time>
      </trkpt>
      <trkpt lat="50.50643" lon="2.99137">
        <ele>31</ele>
        <time>2025-10-17T09:11:19Z</time>
      </trkpt>
      <trkpt lat="50.50529" lon="2.98918">
        <ele>31</ele>
        <time>2025-10-17T09:12:01Z</time>
      </trkpt>
      <trkpt lat="50.5047" lon="2.98762">
        <ele>33</ele>
        <time>2025-10-17T09:12:28Z</time>
      </trkpt>
      <trkpt lat="50.50414" lon="2.98604">
        <ele>32</ele>
        <time>2025-10-17T09:12:55Z</time>
      </trkpt>
      <trkpt lat="50.5032" lon="2.98433">
        <ele>31</ele>
        <time>2025-10-17T09:13:29Z</time>
      </trkpt>
      <trkpt lat="50.50261" lon="2.98414">
        <ele>30</ele>
        <time>2025-10-17T09:13:43Z</time>
      </trkpt>
      <trkpt lat="50.50205" lon="2.98386">
        <ele>30</ele>
        <time>2025-10-17T09:13:57Z</time>
      </trkpt>
      <trkpt lat="50.50173" lon="2.98472">
        <ele>29</ele>
        <time>2025-10-17T09:14:11Z</time>
      </trkpt>
      <trkpt lat="50.50166" lon="2.98481">
        <ele>29</ele>
        <time>2025-10-17T09:14:14Z</time>
      </trkpt>
      <trkpt lat="50.50131" lon="2.98495">
        <ele>29</ele>
        <time>2025-10-17T09:14:22Z</time>
      </trkpt>
      <trkpt lat="50.50092" lon="2.98553">
        <ele>29</ele>
        <time>2025-10-17T09:14:34Z</time>
      </trkpt>
      <trkpt lat="50.50057" lon="2.9862">
        <ele>28</ele>
        <time>2025-10-17T09:14:47Z</time>
      </trkpt>
      <trkpt lat="50.5" lon="2.98749">
        <ele>27</ele>
        <time>2025-10-17T09:15:11Z</time>
      </trkpt>
      <trkpt lat="50.49927" lon="2.98891">
        <ele>25</ele>
        <time>2025-10-17T09:15:38Z</time>
      </trkpt>
      <trkpt lat="50.499" lon="2.9896">
        <ele>25</ele>
        <time>2025-10-17T09:15:50Z</time>
      </trkpt>
      <trkpt lat="50.49885" lon="2.98985">
        <ele>26</ele>
        <time>2025-10-17T09:15:55Z</time>
      </trkpt>
      <trkpt lat="50.4986" lon="2.99017">
        <ele>26</ele>
        <time>2025-10-17T09:16:02Z</time>
      </trkpt>
      <trkpt lat="50.49851" lon="2.99008">
        <ele>26</ele>
        <time>2025-10-17T09:16:05Z</time>
      </trkpt>
      <trkpt lat="50.49822" lon="2.99047">
        <ele>26</ele>
        <time>2025-10-17T09:16:14Z</time>
      </trkpt>
      <trkpt lat="50.49767" lon="2.9913">
        <ele>26</ele>
        <time>2025-10-17T09:16:32Z</time>
      </trkpt>
      <trkpt lat="50.49753" lon="2.99143">
        <ele>25</ele>
        <time>2025-10-17T09:16:35Z</time>
      </trkpt>
      <trkpt lat="50.49741" lon="2.99145">
        <ele>25</ele>
        <time>2025-10-17T09:16:38Z</time>
      </trkpt>
      <trkpt lat="50.49701" lon="2.99131">
        <ele>25</ele>
        <time>2025-10-17T09:16:48Z</time>
      </trkpt>
      <trkpt lat="50.4957" lon="2.99069">
        <ele>25</ele>
        <time>2025-10-17T09:17:20Z</time>
      </trkpt>
      <trkpt lat="50.49494" lon="2.9903">
        <ele>26</ele>
        <time>2025-10-17T09:17:38Z</time>
      </trkpt>
      <trkpt lat="50.49469" lon="2.99015">
        <ele>25</ele>
        <time>2025-10-17T09:17:45Z</time>
      </trkpt>
      <trkpt lat="50.49452" lon="2.99">
        <ele>25</ele>
        <time>2025-10-17T09:17:49Z</time>
      </trkpt>
      <trkpt lat="50.49422" lon="2.98942">
        <ele>23</ele>
        <time>2025-10-17T09:18:00Z</time>
      </trkpt>
      <trkpt lat="50.49316" lon="2.98764">
        <ele>25</ele>
        <time>2025-10-17T09:18:37Z</time>
      </trkpt>
      <trkpt lat="50.49273" lon="2.98683">
        <ele>25</ele>
        <time>2025-10-17T09:18:52Z</time>
      </trkpt>
      <trkpt lat="50.49251" lon="2.98619">
        <ele>24</ele>
        <time>2025-10-17T09:19:03Z</time>
      </trkpt>
      <trkpt lat="50.49287" lon="2.98582">
        <ele>24</ele>
        <time>2025-10-17T09:19:13Z</time>
      </trkpt>
      <trkpt lat="50.49313" lon="2.98566">
        <ele>23</ele>
        <time>2025-10-17T09:19:20Z</time>
      </trkpt>
      <trkpt lat="50.49322" lon="2.98557">
        <ele>23</ele>
        <time>2025-10-17T09:19:22Z</time>
      </trkpt>
      <trkpt lat="50.49326" lon="2.98544">
        <ele>23</ele>
        <time>2025-10-17T09:19:24Z</time>
      </trkpt>
      <trkpt lat="50.49327" lon="2.98524">
        <ele>23</ele>
        <time>2025-10-17T09:19:27Z</time>
      </trkpt>
      <trkpt lat="50.4934" lon="2.98519">
        <ele>23</ele>
        <time>2025-10-17T09:19:30Z</time>
      </trkpt>
      <trkpt lat="50.49346" lon="2.98512">
        <ele>23</ele>
        <time>2025-10-17T09:19:32Z</time>
      </trkpt>
      <trkpt lat="50.49352" lon="2.98485">
        <ele>23</ele>
        <time>2025-10-17T09:19:36Z</time>
      </trkpt>
      <trkpt lat="50.49348" lon="2.98466">
        <ele>23</ele>
        <time>2025-10-17T09:19:39Z</time>
      </trkpt>
      <trkpt lat="50.49335" lon="2.98451">
        <ele>24</ele>
        <time>2025-10-17T09:19:43Z</time>
      </trkpt>
      <trkpt lat="50.49323" lon="2.98451">
        <ele>24</ele>
        <time>2025-10-17T09:19:46Z</time>
      </trkpt>
      <trkpt lat="50.49313" lon="2.98458">
        <ele>24</ele>
        <time>2025-10-17T09:19:48Z</time>
      </trkpt>
      <trkpt lat="50.49307" lon="2.9847">
        <ele>23</ele>
        <time>2025-10-17T09:19:51Z</time>
      </trkpt>
      <trkpt lat="50.49298" lon="2.98463">
        <ele>23</ele>
        <time>2025-10-17T09:19:53Z</time>
      </trkpt>
      <trkpt lat="50.4929" lon="2.98466">
        <ele>23</ele>
        <time>2025-10-17T09:19:55Z</time>
      </trkpt>
      <trkpt lat="50.49273" lon="2.98499">
        <ele>23</ele>
        <time>2025-10-17T09:20:01Z</time>
      </trkpt>
      <trkpt lat="50.49164" lon="2.98608">
        <ele>24</ele>
        <time>2025-10-17T09:20:32Z</time>
      </trkpt>
      <trkpt lat="50.49148" lon="2.98648">
        <ele>25</ele>
        <time>2025-10-17T09:20:39Z</time>
      </trkpt>
      <trkpt lat="50.49129" lon="2.98671">
        <ele>26</ele>
        <time>2025-10-17T09:20:44Z</time>
      </trkpt>
      <trkpt lat="50.49099" lon="2.9864">
        <ele>27</ele>
        <time>2025-10-17T09:20:53Z</time>
      </trkpt>
      <trkpt lat="50.49073" lon="2.98604">
        <ele>28</ele>
        <time>2025-10-17T09:21:01Z</time>
      </trkpt>
      <trkpt lat="50.49056" lon="2.98645">
        <ele>29</ele>
        <time>2025-10-17T09:21:08Z</time>
      </trkpt>
      <trkpt lat="50.49052" lon="2.98639">
        <ele>29</ele>
        <time>2025-10-17T09:21:09Z</time>
      </trkpt>
      <trkpt lat="50.4905" lon="2.98642">
        <ele>29</ele>
        <time>2025-10-17T09:21:10Z</time>
      </trkpt>
      <trkpt lat="50.49045" lon="2.98643">
        <ele>30</ele>
        <time>2025-10-17T09:21:11Z</time>
      </trkpt>
      <trkpt lat="50.49043" lon="2.98636">
        <ele>30</ele>
        <time>2025-10-17T09:21:12Z</time>
      </trkpt>
      <trkpt lat="50.49038" lon="2.98632">
        <ele>30</ele>
        <time>2025-10-17T09:21:13Z</time>
      </trkpt>
      <trkpt lat="50.49034" lon="2.98631">
        <ele>30</ele>
        <time>2025-10-17T09:21:14Z</time>
      </trkpt>
      <trkpt lat="50.49028" lon="2.98634">
        <ele>31</ele>
        <time>2025-10-17T09:21:16Z</time>
      </trkpt>
      <trkpt lat="50.49017" lon="2.98632">
        <ele>31</ele>
        <time>2025-10-17T09:21:18Z</time>
      </trkpt>
      <trkpt lat="50.48997" lon="2.98624">
        <ele>32</ele>
        <time>2025-10-17T09:21:23Z</time>
      </trkpt>
      <trkpt lat="50.4898" lon="2.98608">
        <ele>32</ele>
        <time>2025-10-17T09:21:28Z</time>
      </trkpt>
      <trkpt lat="50.48975" lon="2.98597">
        <ele>32</ele>
        <time>2025-10-17T09:21:30Z</time>
      </trkpt>
      <trkpt lat="50.48973" lon="2.98582">
        <ele>32</ele>
        <time>2025-10-17T09:21:32Z</time>
      </trkpt>
      <trkpt lat="50.48965" lon="2.98576">
        <ele>32</ele>
        <time>2025-10-17T09:21:34Z</time>
      </trkpt>
      <trkpt lat="50.48958" lon="2.98587">
        <ele>32</ele>
        <time>2025-10-17T09:21:37Z</time>
      </trkpt>
      <trkpt lat="50.4896" lon="2.98607">
        <ele>32</ele>
        <time>2025-10-17T09:21:40Z</time>
      </trkpt>
      <trkpt lat="50.48958" lon="2.98615">
        <ele>32</ele>
        <time>2025-10-17T09:21:41Z</time>
      </trkpt>
      <trkpt lat="50.48954" lon="2.98614">
        <ele>32</ele>
        <time>2025-10-17T09:21:42Z</time>
      </trkpt>
      <trkpt lat="50.48948" lon="2.98598">
        <ele>32</ele>
        <time>2025-10-17T09:21:45Z</time>
      </trkpt>
      <trkpt lat="50.48935" lon="2.98599">
        <ele>32</ele>
        <time>2025-10-17T09:21:48Z</time>
      </trkpt>
      <trkpt lat="50.4893" lon="2.98594">
        <ele>32</ele>
        <time>2025-10-17T09:21:49Z</time>
      </trkpt>
      <trkpt lat="50.48929" lon="2.98588">
        <ele>32</ele>
        <time>2025-10-17T09:21:50Z</time>
      </trkpt>
      <trkpt lat="50.48939" lon="2.98557">
        <ele>32</ele>
        <time>2025-10-17T09:21:55Z</time>
      </trkpt>
      <trkpt lat="50.48949" lon="2.9854">
        <ele>32</ele>
        <time>2025-10-17T09:21:58Z</time>
      </trkpt>
      <trkpt lat="50.48979" lon="2.98523">
        <ele>32</ele>
        <time>2025-10-17T09:22:06Z</time>
      </trkpt>
      <trkpt lat="50.48985" lon="2.98508">
        <ele>31</ele>
        <time>2025-10-17T09:22:09Z</time>
      </trkpt>
      <trkpt lat="50.48982" lon="2.98496">
        <ele>31</ele>
        <time>2025-10-17T09:22:10Z</time>
      </trkpt>
      <trkpt lat="50.48976" lon="2.98486">
        <ele>31</ele>
        <time>2025-10-17T09:22:13Z</time>
      </trkpt>
      <trkpt lat="50.48975" lon="2.98477">
        <ele>31</ele>
        <time>2025-10-17T09:22:14Z</time>
      </trkpt>
      <trkpt lat="50.48978" lon="2.98472">
        <ele>31</ele>
        <time>2025-10-17T09:22:15Z</time>
      </trkpt>
      <trkpt lat="50.48976" lon="2.98456">
        <ele>31</ele>
        <time>2025-10-17T09:22:17Z</time>
      </trkpt>
      <trkpt lat="50.4897" lon="2.98452">
        <ele>31</ele>
        <time>2025-10-17T09:22:19Z</time>
      </trkpt>
      <trkpt lat="50.4896" lon="2.98452">
        <ele>31</ele>
        <time>2025-10-17T09:22:21Z</time>
      </trkpt>
      <trkpt lat="50.48953" lon="2.98449">
        <ele>32</ele>
        <time>2025-10-17T09:22:23Z</time>
      </trkpt>
      <trkpt lat="50.48947" lon="2.98435">
        <ele>32</ele>
        <time>2025-10-17T09:22:25Z</time>
      </trkpt>
      <trkpt lat="50.48935" lon="2.98438">
        <ele>32</ele>
        <time>2025-10-17T09:22:28Z</time>
      </trkpt>
      <trkpt lat="50.48926" lon="2.98465">
        <ele>33</ele>
        <time>2025-10-17T09:22:33Z</time>
      </trkpt>
      <trkpt lat="50.48928" lon="2.98471">
        <ele>33</ele>
        <time>2025-10-17T09:22:34Z</time>
      </trkpt>
      <trkpt lat="50.48924" lon="2.98479">
        <ele>33</ele>
        <time>2025-10-17T09:22:35Z</time>
      </trkpt>
      <trkpt lat="50.48912" lon="2.98488">
        <ele>33</ele>
        <time>2025-10-17T09:22:38Z</time>
      </trkpt>
      <trkpt lat="50.48909" lon="2.98487">
        <ele>33</ele>
        <time>2025-10-17T09:22:39Z</time>
      </trkpt>
      <trkpt lat="50.48909" lon="2.98495">
        <ele>33</ele>
        <time>2025-10-17T09:22:40Z</time>
      </trkpt>
      <trkpt lat="50.48905" lon="2.98502">
        <ele>33</ele>
        <time>2025-10-17T09:22:42Z</time>
      </trkpt>
      <trkpt lat="50.48872" lon="2.98473">
        <ele>32</ele>
        <time>2025-10-17T09:22:51Z</time>
      </trkpt>
      <trkpt lat="50.48862" lon="2.98468">
        <ele>32</ele>
        <time>2025-10-17T09:22:53Z</time>
      </trkpt>
      <trkpt lat="50.48843" lon="2.98485">
        <ele>31</ele>
        <time>2025-10-17T09:22:58Z</time>
      </trkpt>
      <trkpt lat="50.48842" lon="2.98494">
        <ele>31</ele>
        <time>2025-10-17T09:22:59Z</time>
      </trkpt>
      <trkpt lat="50.48834" lon="2.98511">
        <ele>31</ele>
        <time>2025-10-17T09:23:03Z</time>
      </trkpt>
      <trkpt lat="50.48825" lon="2.98512">
        <ele>30</ele>
        <time>2025-10-17T09:23:05Z</time>
      </trkpt>
      <trkpt lat="50.48798" lon="2.98501">
        <ele>30</ele>
        <time>2025-10-17T09:23:11Z</time>
      </trkpt>
      <trkpt lat="50.48688" lon="2.98434">
        <ele>29</ele>
        <time>2025-10-17T09:23:39Z</time>
      </trkpt>
      <trkpt lat="50.48673" lon="2.98412">
        <ele>29</ele>
        <time>2025-10-17T09:23:44Z</time>
      </trkpt>
      <trkpt lat="50.48644" lon="2.9838">
        <ele>28</ele>
        <time>2025-10-17T09:23:52Z</time>
      </trkpt>
      <trkpt lat="50.4861" lon="2.9836">
        <ele>28</ele>
        <time>2025-10-17T09:24:00Z</time>
      </trkpt>
      <trkpt lat="50.48593" lon="2.98362">
        <ele>27</ele>
        <time>2025-10-17T09:24:04Z</time>
      </trkpt>
      <trkpt lat="50.48571" lon="2.98346">
        <ele>28</ele>
        <time>2025-10-17T09:24:10Z</time>
      </trkpt>
      <trkpt lat="50.48548" lon="2.983">
        <ele>28</ele>
        <time>2025-10-17T09:24:19Z</time>
      </trkpt>
      <trkpt lat="50.48539" lon="2.98253">
        <ele>27</ele>
        <time>2025-10-17T09:24:26Z</time>
      </trkpt>
      <trkpt lat="50.48533" lon="2.98235">
        <ele>27</ele>
        <time>2025-10-17T09:24:29Z</time>
      </trkpt>
      <trkpt lat="50.48534" lon="2.98206">
        <ele>27</ele>
        <time>2025-10-17T09:24:33Z</time>
      </trkpt>
      <trkpt lat="50.48532" lon="2.98197">
        <ele>28</ele>
        <time>2025-10-17T09:24:35Z</time>
      </trkpt>
      <trkpt lat="50.48523" lon="2.9819">
        <ele>28</ele>
        <time>2025-10-17T09:24:37Z</time>
      </trkpt>
      <trkpt lat="50.48519" lon="2.98179">
        <ele>28</ele>
        <time>2025-10-17T09:24:39Z</time>
      </trkpt>
      <trkpt lat="50.48517" lon="2.98165">
        <ele>28</ele>
        <time>2025-10-17T09:24:41Z</time>
      </trkpt>
      <trkpt lat="50.48523" lon="2.98153">
        <ele>28</ele>
        <time>2025-10-17T09:24:43Z</time>
      </trkpt>
      <trkpt lat="50.48539" lon="2.98151">
        <ele>28</ele>
        <time>2025-10-17T09:24:47Z</time>
      </trkpt>
      <trkpt lat="50.48538" lon="2.98145">
        <ele>28</ele>
        <time>2025-10-17T09:24:48Z</time>
      </trkpt>
      <trkpt lat="50.48528" lon="2.98133">
        <ele>28</ele>
        <time>2025-10-17T09:24:51Z</time>
      </trkpt>
      <trkpt lat="50.48509" lon="2.9813">
        <ele>29</ele>
        <time>2025-10-17T09:24:55Z</time>
      </trkpt>
      <trkpt lat="50.48507" lon="2.98121">
        <ele>29</ele>
        <time>2025-10-17T09:24:57Z</time>
      </trkpt>
      <trkpt lat="50.48512" lon="2.9809">
        <ele>29</ele>
        <time>2025-10-17T09:25:02Z</time>
      </trkpt>
      <trkpt lat="50.48509" lon="2.98068">
        <ele>28</ele>
        <time>2025-10-17T09:25:05Z</time>
      </trkpt>
      <trkpt lat="50.48502" lon="2.98058">
        <ele>28</ele>
        <time>2025-10-17T09:25:07Z</time>
      </trkpt>
      <trkpt lat="50.48502" lon="2.98032">
        <ele>27</ele>
        <time>2025-10-17T09:25:11Z</time>
      </trkpt>
      <trkpt lat="50.48491" lon="2.98008">
        <ele>27</ele>
        <time>2025-10-17T09:25:15Z</time>
      </trkpt>
      <trkpt lat="50.4847" lon="2.97941">
        <ele>25</ele>
        <time>2025-10-17T09:25:26Z</time>
      </trkpt>
      <trkpt lat="50.48461" lon="2.97892">
        <ele>25</ele>
        <time>2025-10-17T09:25:34Z</time>
      </trkpt>
      <trkpt lat="50.48449" lon="2.97862">
        <ele>25</ele>
        <time>2025-10-17T09:25:39Z</time>
      </trkpt>
      <trkpt lat="50.48436" lon="2.97813">
        <ele>26</ele>
        <time>2025-10-17T09:25:47Z</time>
      </trkpt>
      <trkpt lat="50.48437" lon="2.97786">
        <ele>25</ele>
        <time>2025-10-17T09:25:51Z</time>
      </trkpt>
      <trkpt lat="50.4842" lon="2.97753">
        <ele>25</ele>
        <time>2025-10-17T09:25:57Z</time>
      </trkpt>
      <trkpt lat="50.48398" lon="2.97686">
        <ele>27</ele>
        <time>2025-10-17T09:26:09Z</time>
      </trkpt>
      <trkpt lat="50.48403" lon="2.97672">
        <ele>27</ele>
        <time>2025-10-17T09:26:11Z</time>
      </trkpt>
      <trkpt lat="50.4836" lon="2.97567">
        <ele>27</ele>
        <time>2025-10-17T09:26:30Z</time>
      </trkpt>
      <trkpt lat="50.48356" lon="2.97539">
        <ele>25</ele>
        <time>2025-10-17T09:26:34Z</time>
      </trkpt>
      <trkpt lat="50.48368" lon="2.9751">
        <ele>24</ele>
        <time>2025-10-17T09:26:39Z</time>
      </trkpt>
      <trkpt lat="50.484" lon="2.97525">
        <ele>26</ele>
        <time>2025-10-17T09:26:47Z</time>
      </trkpt>
      <trkpt lat="50.4846" lon="2.97597">
        <ele>28</ele>
        <time>2025-10-17T09:27:04Z</time>
      </trkpt>
      <trkpt lat="50.48474" lon="2.97626">
        <ele>27</ele>
        <time>2025-10-17T09:27:10Z</time>
      </trkpt>
      <trkpt lat="50.48488" lon="2.97664">
        <ele>27</ele>
        <time>2025-10-17T09:27:16Z</time>
      </trkpt>
      <trkpt lat="50.48487" lon="2.97676">
        <ele>27</ele>
        <time>2025-10-17T09:27:18Z</time>
      </trkpt>
      <trkpt lat="50.4849" lon="2.97682">
        <ele>27</ele>
        <time>2025-10-17T09:27:19Z</time>
      </trkpt>
      <trkpt lat="50.48496" lon="2.97741">
        <ele>25</ele>
        <time>2025-10-17T09:27:28Z</time>
      </trkpt>
      <trkpt lat="50.48513" lon="2.97803">
        <ele>24</ele>
        <time>2025-10-17T09:27:38Z</time>
      </trkpt>
      <trkpt lat="50.48507" lon="2.97889">
        <ele>22</ele>
        <time>2025-10-17T09:27:51Z</time>
      </trkpt>
      <trkpt lat="50.48544" lon="2.98029">
        <ele>26</ele>
        <time>2025-10-17T09:28:14Z</time>
      </trkpt>
      <trkpt lat="50.48554" lon="2.98043">
        <ele>26</ele>
        <time>2025-10-17T09:28:17Z</time>
      </trkpt>
      <trkpt lat="50.48562" lon="2.98033">
        <ele>26</ele>
        <time>2025-10-17T09:28:19Z</time>
      </trkpt>
      <trkpt lat="50.48565" lon="2.98025">
        <ele>26</ele>
        <time>2025-10-17T09:28:21Z</time>
      </trkpt>
      <trkpt lat="50.48565" lon="2.98018">
        <ele>26</ele>
        <time>2025-10-17T09:28:22Z</time>
      </trkpt>
      <trkpt lat="50.48555" lon="2.97993">
        <ele>25</ele>
        <time>2025-10-17T09:28:26Z</time>
      </trkpt>
      <trkpt lat="50.48554" lon="2.97982">
        <ele>25</ele>
        <time>2025-10-17T09:28:28Z</time>
      </trkpt>
      <trkpt lat="50.48557" lon="2.97969">
        <ele>25</ele>
        <time>2025-10-17T09:28:30Z</time>
      </trkpt>
      <trkpt lat="50.48566" lon="2.97966">
        <ele>25</ele>
        <time>2025-10-17T09:28:32Z</time>
      </trkpt>
      <trkpt lat="50.48576" lon="2.97959">
        <ele>25</ele>
        <time>2025-10-17T09:28:34Z</time>
      </trkpt>
      <trkpt lat="50.48568" lon="2.97941">
        <ele>25</ele>
        <time>2025-10-17T09:28:38Z</time>
      </trkpt>
      <trkpt lat="50.48569" lon="2.97878">
        <ele>26</ele>
        <time>2025-10-17T09:28:47Z</time>
      </trkpt>
      <trkpt lat="50.48563" lon="2.9785">
        <ele>26</ele>
        <time>2025-10-17T09:28:51Z</time>
      </trkpt>
      <trkpt lat="50.48562" lon="2.97817">
        <ele>26</ele>
        <time>2025-10-17T09:28:56Z</time>
      </trkpt>
      <trkpt lat="50.48568" lon="2.97786">
        <ele>27</ele>
        <time>2025-10-17T09:29:01Z</time>
      </trkpt>
      <trkpt lat="50.48574" lon="2.9777">
        <ele>28</ele>
        <time>2025-10-17T09:29:04Z</time>
      </trkpt>
      <trkpt lat="50.48582" lon="2.97761">
        <ele>29</ele>
        <time>2025-10-17T09:29:06Z</time>
      </trkpt>
      <trkpt lat="50.48597" lon="2.97757">
        <ele>30</ele>
        <time>2025-10-17T09:29:10Z</time>
      </trkpt>
      <trkpt lat="50.48633" lon="2.97768">
        <ele>35</ele>
        <time>2025-10-17T09:29:18Z</time>
      </trkpt>
      <trkpt lat="50.48645" lon="2.97758">
        <ele>36</ele>
        <time>2025-10-17T09:29:21Z</time>
      </trkpt>
      <trkpt lat="50.48656" lon="2.97732">
        <ele>35</ele>
        <time>2025-10-17T09:29:26Z</time>
      </trkpt>
      <trkpt lat="50.48671" lon="2.97708">
        <ele>35</ele>
        <time>2025-10-17T09:29:31Z</time>
      </trkpt>
      <trkpt lat="50.48683" lon="2.9771">
        <ele>38</ele>
        <time>2025-10-17T09:29:34Z</time>
      </trkpt>
      <trkpt lat="50.48688" lon="2.97739">
        <ele>42</ele>
        <time>2025-10-17T09:29:38Z</time>
      </trkpt>
      <trkpt lat="50.48687" lon="2.97769">
        <ele>45</ele>
        <time>2025-10-17T09:29:43Z</time>
      </trkpt>
      <trkpt lat="50.4867" lon="2.97827">
        <ele>45</ele>
        <time>2025-10-17T09:29:52Z</time>
      </trkpt>
      <trkpt lat="50.4867" lon="2.97849">
        <ele>45</ele>
        <time>2025-10-17T09:29:56Z</time>
      </trkpt>
      <trkpt lat="50.48681" lon="2.9789">
        <ele>49</ele>
        <time>2025-10-17T09:30:02Z</time>
      </trkpt>
      <trkpt lat="50.48687" lon="2.97894">
        <ele>50</ele>
        <time>2025-10-17T09:30:04Z</time>
      </trkpt>
      <trkpt lat="50.48691" lon="2.97902">
        <ele>52</ele>
        <time>2025-10-17T09:30:05Z</time>
      </trkpt>
      <trkpt lat="50.487" lon="2.9793">
        <ele>52</ele>
        <time>2025-10-17T09:30:10Z</time>
      </trkpt>
      <trkpt lat="50.4871" lon="2.97942">
        <ele>53</ele>
        <time>2025-10-17T09:30:13Z</time>
      </trkpt>
      <trkpt lat="50.48714" lon="2.97957">
        <ele>52</ele>
        <time>2025-10-17T09:30:15Z</time>
      </trkpt>
      <trkpt lat="50.48706" lon="2.97995">
        <ele>44</ele>
        <time>2025-10-17T09:30:21Z</time>
      </trkpt>
      <trkpt lat="50.48689" lon="2.98019">
        <ele>39</ele>
        <time>2025-10-17T09:30:27Z</time>
      </trkpt>
      <trkpt lat="50.48703" lon="2.98039">
        <ele>37</ele>
        <time>2025-10-17T09:30:31Z</time>
      </trkpt>
      <trkpt lat="50.48726" lon="2.98058">
        <ele>36</ele>
        <time>2025-10-17T09:30:37Z</time>
      </trkpt>
      <trkpt lat="50.48735" lon="2.98061">
        <ele>36</ele>
        <time>2025-10-17T09:30:39Z</time>
      </trkpt>
      <trkpt lat="50.48751" lon="2.98056">
        <ele>38</ele>
        <time>2025-10-17T09:30:43Z</time>
      </trkpt>
      <trkpt lat="50.48753" lon="2.98068">
        <ele>35</ele>
        <time>2025-10-17T09:30:45Z</time>
      </trkpt>
      <trkpt lat="50.48758" lon="2.98067">
        <ele>35</ele>
        <time>2025-10-17T09:30:46Z</time>
      </trkpt>
      <trkpt lat="50.48763" lon="2.98071">
        <ele>33</ele>
        <time>2025-10-17T09:30:47Z</time>
      </trkpt>
      <trkpt lat="50.48805" lon="2.98065">
        <ele>31</ele>
        <time>2025-10-17T09:30:57Z</time>
      </trkpt>
      <trkpt lat="50.48817" lon="2.98058">
        <ele>30</ele>
        <time>2025-10-17T09:31:00Z</time>
      </trkpt>
      <trkpt lat="50.48826" lon="2.9806">
        <ele>29</ele>
        <time>2025-10-17T09:31:02Z</time>
      </trkpt>
      <trkpt lat="50.48851" lon="2.98043">
        <ele>29</ele>
        <time>2025-10-17T09:31:09Z</time>
      </trkpt>
      <trkpt lat="50.48862" lon="2.98023">
        <ele>30</ele>
        <time>2025-10-17T09:31:13Z</time>
      </trkpt>
      <trkpt lat="50.48878" lon="2.9802">
        <ele>30</ele>
        <time>2025-10-17T09:31:16Z</time>
      </trkpt>
      <trkpt lat="50.48914" lon="2.98003">
        <ele>28</ele>
        <time>2025-10-17T09:31:25Z</time>
      </trkpt>
      <trkpt lat="50.48927" lon="2.98011">
        <ele>28</ele>
        <time>2025-10-17T09:31:28Z</time>
      </trkpt>
      <trkpt lat="50.48945" lon="2.98005">
        <ele>28</ele>
        <time>2025-10-17T09:31:33Z</time>
      </trkpt>
      <trkpt lat="50.48963" lon="2.98004">
        <ele>28</ele>
        <time>2025-10-17T09:31:37Z</time>
      </trkpt>
      <trkpt lat="50.48975" lon="2.97992">
        <ele>28</ele>
        <time>2025-10-17T09:31:40Z</time>
      </trkpt>
      <trkpt lat="50.48976" lon="2.97985">
        <ele>28</ele>
        <time>2025-10-17T09:31:41Z</time>
      </trkpt>
      <trkpt lat="50.49017" lon="2.98027">
        <ele>28</ele>
        <time>2025-10-17T09:31:53Z</time>
      </trkpt>
      <trkpt lat="50.49042" lon="2.98048">
        <ele>29</ele>
        <time>2025-10-17T09:31:59Z</time>
      </trkpt>
      <trkpt lat="50.49099" lon="2.98028">
        <ele>28</ele>
        <time>2025-10-17T09:32:13Z</time>
      </trkpt>
      <trkpt lat="50.49117" lon="2.98037">
        <ele>28</ele>
        <time>2025-10-17T09:32:17Z</time>
      </trkpt>
      <trkpt lat="50.49195" lon="2.97993">
        <ele>26</ele>
        <time>2025-10-17T09:32:37Z</time>
      </trkpt>
      <trkpt lat="50.49156" lon="2.97477">
        <ele>27</ele>
        <time>2025-10-17T09:33:54Z</time>
      </trkpt>
      <trkpt lat="50.49131" lon="2.96883">
        <ele>29</ele>
        <time>2025-10-17T09:35:22Z</time>
      </trkpt>
      <trkpt lat="50.48783" lon="2.96932">
        <ele>25</ele>
        <time>2025-10-17T09:36:44Z</time>
      </trkpt>
      <trkpt lat="50.48739" lon="2.96947">
        <ele>24</ele>
        <time>2025-10-17T09:36:54Z</time>
      </trkpt>
      <trkpt lat="50.48739" lon="2.96988">
        <ele>23</ele>
        <time>2025-10-17T09:37:01Z</time>
      </trkpt>
      <trkpt lat="50.48674" lon="2.97084">
        <ele>21</ele>
        <time>2025-10-17T09:37:21Z</time>
      </trkpt>
      <trkpt lat="50.48534" lon="2.97276">
        <ele>22</ele>
        <time>2025-10-17T09:38:05Z</time>
      </trkpt>
      <trkpt lat="50.48506" lon="2.97282">
        <ele>23</ele>
        <time>2025-10-17T09:38:11Z</time>
      </trkpt>
      <trkpt lat="50.48497" lon="2.9729">
        <ele>23</ele>
        <time>2025-10-17T09:38:14Z</time>
      </trkpt>
      <trkpt lat="50.48488" lon="2.97304">
        <ele>23</ele>
        <time>2025-10-17T09:38:17Z</time>
      </trkpt>
      <trkpt lat="50.48489" lon="2.97337">
        <ele>23</ele>
        <time>2025-10-17T09:38:22Z</time>
      </trkpt>
      <trkpt lat="50.4845" lon="2.97388">
        <ele>23</ele>
        <time>2025-10-17T09:38:34Z</time>
      </trkpt>
      <trkpt lat="50.48437" lon="2.974">
        <ele>23</ele>
        <time>2025-10-17T09:38:37Z</time>
      </trkpt>
      <trkpt lat="50.48428" lon="2.97396">
        <ele>23</ele>
        <time>2025-10-17T09:38:39Z</time>
      </trkpt>
      <trkpt lat="50.48397" lon="2.97404">
        <ele>22</ele>
        <time>2025-10-17T09:38:47Z</time>
      </trkpt>
      <trkpt lat="50.48383" lon="2.97405">
        <ele>22</ele>
        <time>2025-10-17T09:38:50Z</time>
      </trkpt>
      <trkpt lat="50.48375" lon="2.97402">
        <ele>22</ele>
        <time>2025-10-17T09:38:52Z</time>
      </trkpt>
      <trkpt lat="50.48368" lon="2.97404">
        <ele>21</ele>
        <time>2025-10-17T09:38:53Z</time>
      </trkpt>
      <trkpt lat="50.48362" lon="2.97409">
        <ele>21</ele>
        <time>2025-10-17T09:38:55Z</time>
      </trkpt>
      <trkpt lat="50.4835" lon="2.97412">
        <ele>21</ele>
        <time>2025-10-17T09:38:58Z</time>
      </trkpt>
      <trkpt lat="50.4832" lon="2.97408">
        <ele>21</ele>
        <time>2025-10-17T09:39:05Z</time>
      </trkpt>
      <trkpt lat="50.48307" lon="2.97415">
        <ele>21</ele>
        <time>2025-10-17T09:39:08Z</time>
      </trkpt>
      <trkpt lat="50.48328" lon="2.97501">
        <ele>22</ele>
        <time>2025-10-17T09:39:22Z</time>
      </trkpt>
      <trkpt lat="50.48294" lon="2.97512">
        <ele>24</ele>
        <time>2025-10-17T09:39:30Z</time>
      </trkpt>
      <trkpt lat="50.48139" lon="2.97548">
        <ele>21</ele>
        <time>2025-10-17T09:40:06Z</time>
      </trkpt>
      <trkpt lat="50.48019" lon="2.97583">
        <ele>21</ele>
        <time>2025-10-17T09:40:35Z</time>
      </trkpt>
      <trkpt lat="50.48011" lon="2.97588">
        <ele>21</ele>
        <time>2025-10-17T09:40:37Z</time>
      </trkpt>
      <trkpt lat="50.47936" lon="2.97594">
        <ele>23</ele>
        <time>2025-10-17T09:40:54Z</time>
      </trkpt>
      <trkpt lat="50.47874" lon="2.97595">
        <ele>23</ele>
        <time>2025-10-17T09:41:09Z</time>
      </trkpt>
      <trkpt lat="50.47843" lon="2.97538">
        <ele>24</ele>
        <time>2025-10-17T09:41:20Z</time>
      </trkpt>
      <trkpt lat="50.4783" lon="2.97491">
        <ele>24</ele>
        <time>2025-10-17T09:41:28Z</time>
      </trkpt>
      <trkpt lat="50.47815" lon="2.97456">
        <ele>24</ele>
        <time>2025-10-17T09:41:34Z</time>
      </trkpt>
      <trkpt lat="50.47794" lon="2.9743">
        <ele>24</ele>
        <time>2025-10-17T09:41:40Z</time>
      </trkpt>
      <trkpt lat="50.4768" lon="2.97329">
        <ele>24</ele>
        <time>2025-10-17T09:42:11Z</time>
      </trkpt>
      <trkpt lat="50.47628" lon="2.973">
        <ele>24</ele>
        <time>2025-10-17T09:42:24Z</time>
      </trkpt>
      <trkpt lat="50.47621" lon="2.97291">
        <ele>24</ele>
        <time>2025-10-17T09:42:26Z</time>
      </trkpt>
      <trkpt lat="50.47617" lon="2.97311">
        <ele>24</ele>
        <time>2025-10-17T09:42:29Z</time>
      </trkpt>
      <trkpt lat="50.47555" lon="2.97438">
        <ele>24</ele>
        <time>2025-10-17T09:42:53Z</time>
      </trkpt>
      <trkpt lat="50.47526" lon="2.97491">
        <ele>23</ele>
        <time>2025-10-17T09:43:03Z</time>
      </trkpt>
      <trkpt lat="50.47518" lon="2.97482">
        <ele>24</ele>
        <time>2025-10-17T09:43:05Z</time>
      </trkpt>
      <trkpt lat="50.47512" lon="2.97481">
        <ele>24</ele>
        <time>2025-10-17T09:43:07Z</time>
      </trkpt>
      <trkpt lat="50.47468" lon="2.97548">
        <ele>24</ele>
        <time>2025-10-17T09:43:21Z</time>
      </trkpt>
      <trkpt lat="50.47462" lon="2.97545">
        <ele>24</ele>
        <time>2025-10-17T09:43:23Z</time>
      </trkpt>
      <trkpt lat="50.47432" lon="2.97498">
        <ele>24</ele>
        <time>2025-10-17T09:43:32Z</time>
      </trkpt>
      <trkpt lat="50.47435" lon="2.97486">
        <ele>24</ele>
        <time>2025-10-17T09:43:34Z</time>
      </trkpt>
      <trkpt lat="50.47432" lon="2.97475">
        <ele>24</ele>
        <time>2025-10-17T09:43:36Z</time>
      </trkpt>
      <trkpt lat="50.47425" lon="2.9747">
        <ele>24</ele>
        <time>2025-10-17T09:43:38Z</time>
      </trkpt>
      <trkpt lat="50.47417" lon="2.97475">
        <ele>24</ele>
        <time>2025-10-17T09:43:40Z</time>
      </trkpt>
      <trkpt lat="50.47297" lon="2.97294">
        <ele>24</ele>
        <time>2025-10-17T09:44:19Z</time>
      </trkpt>
      <trkpt lat="50.47232" lon="2.97396">
        <ele>24</ele>
        <time>2025-10-17T09:44:40Z</time>
      </trkpt>
      <trkpt lat="50.4723" lon="2.97385">
        <ele>24</ele>
        <time>2025-10-17T09:44:42Z</time>
      </trkpt>
      <trkpt lat="50.47089" lon="2.97166">
        <ele>23</ele>
        <time>2025-10-17T09:45:28Z</time>
      </trkpt>
      <trkpt lat="50.4708" lon="2.97136">
        <ele>23</ele>
        <time>2025-10-17T09:45:33Z</time>
      </trkpt>
      <trkpt lat="50.47082" lon="2.97101">
        <ele>24</ele>
        <time>2025-10-17T09:45:38Z</time>
      </trkpt>
      <trkpt lat="50.47087" lon="2.9707">
        <ele>24</ele>
        <time>2025-10-17T09:45:43Z</time>
      </trkpt>
      <trkpt lat="50.47104" lon="2.97037">
        <ele>24</ele>
        <time>2025-10-17T09:45:50Z</time>
      </trkpt>
      <trkpt lat="50.47103" lon="2.97024">
        <ele>24</ele>
        <time>2025-10-17T09:45:51Z</time>
      </trkpt>
      <trkpt lat="50.4703" lon="2.96925">
        <ele>28</ele>
        <time>2025-10-17T09:46:14Z</time>
      </trkpt>
      <trkpt lat="50.46978" lon="2.96871">
        <ele>29</ele>
        <time>2025-10-17T09:46:29Z</time>
      </trkpt>
      <trkpt lat="50.46863" lon="2.96692">
        <ele>26</ele>
        <time>2025-10-17T09:47:06Z</time>
      </trkpt>
      <trkpt lat="50.46802" lon="2.96796">
        <ele>26</ele>
        <time>2025-10-17T09:47:27Z</time>
      </trkpt>
      <trkpt lat="50.46742" lon="2.96892">
        <ele>25</ele>
        <time>2025-10-17T09:47:47Z</time>
      </trkpt>
      <trkpt lat="50.46719" lon="2.9694">
        <ele>26</ele>
        <time>2025-10-17T09:47:56Z</time>
      </trkpt>
      <trkpt lat="50.46657" lon="2.97038">
        <ele>26</ele>
        <time>2025-10-17T09:48:17Z</time>
      </trkpt>
      <trkpt lat="50.46611" lon="2.9712">
        <ele>26</ele>
        <time>2025-10-17T09:48:33Z</time>
      </trkpt>
      <trkpt lat="50.46593" lon="2.97136">
        <ele>27</ele>
        <time>2025-10-17T09:48:38Z</time>
      </trkpt>
      <trkpt lat="50.46648" lon="2.97307">
        <ele>26</ele>
        <time>2025-10-17T09:49:06Z</time>
      </trkpt>
      <trkpt lat="50.46657" lon="2.9735">
        <ele>26</ele>
        <time>2025-10-17T09:49:13Z</time>
      </trkpt>
      <trkpt lat="50.46677" lon="2.97517">
        <ele>27</ele>
        <time>2025-10-17T09:49:38Z</time>
      </trkpt>
      <trkpt lat="50.46688" lon="2.97583">
        <ele>27</ele>
        <time>2025-10-17T09:49:49Z</time>
      </trkpt>
      <trkpt lat="50.4676" lon="2.97964">
        <ele>28</ele>
        <time>2025-10-17T09:50:48Z</time>
      </trkpt>
      <trkpt lat="50.4677" lon="2.98053">
        <ele>28</ele>
        <time>2025-10-17T09:51:01Z</time>
      </trkpt>
      <trkpt lat="50.46773" lon="2.98356">
        <ele>27</ele>
        <time>2025-10-17T09:51:46Z</time>
      </trkpt>
      <trkpt lat="50.46769" lon="2.98356">
        <ele>27</ele>
        <time>2025-10-17T09:51:47Z</time>
      </trkpt>
      <trkpt lat="50.46765" lon="2.98362">
        <ele>27</ele>
        <time>2025-10-17T09:51:48Z</time>
      </trkpt>
      <trkpt lat="50.46764" lon="2.9837">
        <ele>28</ele>
        <time>2025-10-17T09:51:50Z</time>
      </trkpt>
      <trkpt lat="50.46766" lon="2.98377">
        <ele>28</ele>
        <time>2025-10-17T09:51:51Z</time>
      </trkpt>
      <trkpt lat="50.46771" lon="2.98381">
        <ele>28</ele>
        <time>2025-10-17T09:51:52Z</time>
      </trkpt>
      <trkpt lat="50.46755" lon="2.98518">
        <ele>29</ele>
        <time>2025-10-17T09:52:13Z</time>
      </trkpt>
      <trkpt lat="50.46744" lon="2.98523">
        <ele>30</ele>
        <time>2025-10-17T09:52:15Z</time>
      </trkpt>
      <trkpt lat="50.4672" lon="2.98519">
        <ele>30</ele>
        <time>2025-10-17T09:52:21Z</time>
      </trkpt>
      <trkpt lat="50.46713" lon="2.98514">
        <ele>31</ele>
        <time>2025-10-17T09:52:23Z</time>
      </trkpt>
      <trkpt lat="50.46706" lon="2.98513">
        <ele>31</ele>
        <time>2025-10-17T09:52:24Z</time>
      </trkpt>
      <trkpt lat="50.46696" lon="2.98487">
        <ele>31</ele>
        <time>2025-10-17T09:52:29Z</time>
      </trkpt>
      <trkpt lat="50.46669" lon="2.98433">
        <ele>32</ele>
        <time>2025-10-17T09:52:39Z</time>
      </trkpt>
      <trkpt lat="50.46647" lon="2.98417">
        <ele>33</ele>
        <time>2025-10-17T09:52:45Z</time>
      </trkpt>
      <trkpt lat="50.46633" lon="2.98382">
        <ele>31</ele>
        <time>2025-10-17T09:52:51Z</time>
      </trkpt>
      <trkpt lat="50.46623" lon="2.98342">
        <ele>30</ele>
        <time>2025-10-17T09:52:57Z</time>
      </trkpt>
      <trkpt lat="50.46594" lon="2.98296">
        <ele>29</ele>
        <time>2025-10-17T09:53:07Z</time>
      </trkpt>
      <trkpt lat="50.46568" lon="2.98328">
        <ele>29</ele>
        <time>2025-10-17T09:53:15Z</time>
      </trkpt>
      <trkpt lat="50.46558" lon="2.98355">
        <ele>30</ele>
        <time>2025-10-17T09:53:19Z</time>
      </trkpt>
      <trkpt lat="50.46554" lon="2.98381">
        <ele>31</ele>
        <time>2025-10-17T09:53:23Z</time>
      </trkpt>
      <trkpt lat="50.46535" lon="2.98412">
        <ele>30</ele>
        <time>2025-10-17T09:53:30Z</time>
      </trkpt>
      <trkpt lat="50.46532" lon="2.98438">
        <ele>30</ele>
        <time>2025-10-17T09:53:34Z</time>
      </trkpt>
      <trkpt lat="50.46518" lon="2.98477">
        <ele>30</ele>
        <time>2025-10-17T09:53:40Z</time>
      </trkpt>
      <trkpt lat="50.46489" lon="2.98514">
        <ele>29</ele>
        <time>2025-10-17T09:53:49Z</time>
      </trkpt>
      <trkpt lat="50.46485" lon="2.9857">
        <ele>29</ele>
        <time>2025-10-17T09:53:57Z</time>
      </trkpt>
      <trkpt lat="50.46478" lon="2.98586">
        <ele>29</ele>
        <time>2025-10-17T09:54:00Z</time>
      </trkpt>
      <trkpt lat="50.4646" lon="2.98591">
        <ele>29</ele>
        <time>2025-10-17T09:54:05Z</time>
      </trkpt>
      <trkpt lat="50.46444" lon="2.98606">
        <ele>29</ele>
        <time>2025-10-17T09:54:09Z</time>
      </trkpt>
      <trkpt lat="50.4641" lon="2.9868">
        <ele>31</ele>
        <time>2025-10-17T09:54:22Z</time>
      </trkpt>
      <trkpt lat="50.46393" lon="2.98693">
        <ele>30</ele>
        <time>2025-10-17T09:54:27Z</time>
      </trkpt>
      <trkpt lat="50.4637" lon="2.98726">
        <ele>30</ele>
        <time>2025-10-17T09:54:34Z</time>
      </trkpt>
      <trkpt lat="50.46368" lon="2.9875">
        <ele>31</ele>
        <time>2025-10-17T09:54:38Z</time>
      </trkpt>
      <trkpt lat="50.46276" lon="2.98657">
        <ele>29</ele>
        <time>2025-10-17T09:55:03Z</time>
      </trkpt>
      <trkpt lat="50.46203" lon="2.9856">
        <ele>30</ele>
        <time>2025-10-17T09:55:26Z</time>
      </trkpt>
      <trkpt lat="50.46175" lon="2.98535">
        <ele>31</ele>
        <time>2025-10-17T09:55:33Z</time>
      </trkpt>
      <trkpt lat="50.46143" lon="2.98465">
        <ele>34</ele>
        <time>2025-10-17T09:55:46Z</time>
      </trkpt>
      <trkpt lat="50.46119" lon="2.98427">
        <ele>36</ele>
        <time>2025-10-17T09:55:54Z</time>
      </trkpt>
      <trkpt lat="50.46115" lon="2.9839">
        <ele>37</ele>
        <time>2025-10-17T09:55:59Z</time>
      </trkpt>
      <trkpt lat="50.46116" lon="2.9835">
        <ele>37</ele>
        <time>2025-10-17T09:56:05Z</time>
      </trkpt>
      <trkpt lat="50.46105" lon="2.98313">
        <ele>38</ele>
        <time>2025-10-17T09:56:11Z</time>
      </trkpt>
      <trkpt lat="50.46099" lon="2.98309">
        <ele>39</ele>
        <time>2025-10-17T09:56:13Z</time>
      </trkpt>
      <trkpt lat="50.46092" lon="2.98308">
        <ele>39</ele>
        <time>2025-10-17T09:56:15Z</time>
      </trkpt>
      <trkpt lat="50.46096" lon="2.98326">
        <ele>39</ele>
        <time>2025-10-17T09:56:17Z</time>
      </trkpt>
      <trkpt lat="50.46091" lon="2.98343">
        <ele>39</ele>
        <time>2025-10-17T09:56:20Z</time>
      </trkpt>
      <trkpt lat="50.46084" lon="2.98349">
        <ele>40</ele>
        <time>2025-10-17T09:56:22Z</time>
      </trkpt>
      <trkpt lat="50.46076" lon="2.98352">
        <ele>40</ele>
        <time>2025-10-17T09:56:24Z</time>
      </trkpt>
      <trkpt lat="50.46068" lon="2.98345">
        <ele>40</ele>
        <time>2025-10-17T09:56:26Z</time>
      </trkpt>
      <trkpt lat="50.46049" lon="2.98314">
        <ele>40</ele>
        <time>2025-10-17T09:56:33Z</time>
      </trkpt>
      <trkpt lat="50.46021" lon="2.9829">
        <ele>40</ele>
        <time>2025-10-17T09:56:40Z</time>
      </trkpt>
      <trkpt lat="50.46013" lon="2.98274">
        <ele>40</ele>
        <time>2025-10-17T09:56:43Z</time>
      </trkpt>
      <trkpt lat="50.45991" lon="2.98209">
        <ele>37</ele>
        <time>2025-10-17T09:56:54Z</time>
      </trkpt>
      <trkpt lat="50.4595" lon="2.98128">
        <ele>33</ele>
        <time>2025-10-17T09:57:09Z</time>
      </trkpt>
      <trkpt lat="50.45927" lon="2.98065">
        <ele>31</ele>
        <time>2025-10-17T09:57:20Z</time>
      </trkpt>
      <trkpt lat="50.45918" lon="2.98053">
        <ele>30</ele>
        <time>2025-10-17T09:57:23Z</time>
      </trkpt>
      <trkpt lat="50.45906" lon="2.98046">
        <ele>30</ele>
        <time>2025-10-17T09:57:26Z</time>
      </trkpt>
      <trkpt lat="50.45894" lon="2.98048">
        <ele>30</ele>
        <time>2025-10-17T09:57:29Z</time>
      </trkpt>
      <trkpt lat="50.45874" lon="2.98056">
        <ele>31</ele>
        <time>2025-10-17T09:57:34Z</time>
      </trkpt>
      <trkpt lat="50.45857" lon="2.98067">
        <ele>31</ele>
        <time>2025-10-17T09:57:38Z</time>
      </trkpt>
      <trkpt lat="50.45805" lon="2.98162">
        <ele>30</ele>
        <time>2025-10-17T09:57:56Z</time>
      </trkpt>
      <trkpt lat="50.45785" lon="2.98186">
        <ele>29</ele>
        <time>2025-10-17T09:58:02Z</time>
      </trkpt>
      <trkpt lat="50.45758" lon="2.98209">
        <ele>29</ele>
        <time>2025-10-17T09:58:10Z</time>
      </trkpt>
      <trkpt lat="50.4575" lon="2.98221">
        <ele>29</ele>
        <time>2025-10-17T09:58:12Z</time>
      </trkpt>
      <trkpt lat="50.45745" lon="2.98236">
        <ele>29</ele>
        <time>2025-10-17T09:58:15Z</time>
      </trkpt>
      <trkpt lat="50.45737" lon="2.98364">
        <ele>28</ele>
        <time>2025-10-17T09:58:34Z</time>
      </trkpt>
      <trkpt lat="50.45738" lon="2.98392">
        <ele>27</ele>
        <time>2025-10-17T09:58:38Z</time>
      </trkpt>
      <trkpt lat="50.45755" lon="2.9845">
        <ele>26</ele>
        <time>2025-10-17T09:58:47Z</time>
      </trkpt>
      <trkpt lat="50.45738" lon="2.98453">
        <ele>26</ele>
        <time>2025-10-17T09:58:51Z</time>
      </trkpt>
      <trkpt lat="50.45711" lon="2.98441">
        <ele>27</ele>
        <time>2025-10-17T09:58:58Z</time>
      </trkpt>
      <trkpt lat="50.45707" lon="2.98432">
        <ele>27</ele>
        <time>2025-10-17T09:59:00Z</time>
      </trkpt>
      <trkpt lat="50.45703" lon="2.98408">
        <ele>27</ele>
        <time>2025-10-17T09:59:03Z</time>
      </trkpt>
      <trkpt lat="50.45695" lon="2.98408">
        <ele>26</ele>
        <time>2025-10-17T09:59:05Z</time>
      </trkpt>
      <trkpt lat="50.45692" lon="2.98371">
        <ele>27</ele>
        <time>2025-10-17T09:59:11Z</time>
      </trkpt>
      <trkpt lat="50.45697" lon="2.98326">
        <ele>27</ele>
        <time>2025-10-17T09:59:18Z</time>
      </trkpt>
      <trkpt lat="50.45694" lon="2.98289">
        <ele>27</ele>
        <time>2025-10-17T09:59:23Z</time>
      </trkpt>
      <trkpt lat="50.45698" lon="2.98269">
        <ele>27</ele>
        <time>2025-10-17T09:59:26Z</time>
      </trkpt>
      <trkpt lat="50.45697" lon="2.98253">
        <ele>27</ele>
        <time>2025-10-17T09:59:29Z</time>
      </trkpt>
      <trkpt lat="50.45691" lon="2.98228">
        <ele>27</ele>
        <time>2025-10-17T09:59:33Z</time>
      </trkpt>
      <trkpt lat="50.45678" lon="2.98204">
        <ele>27</ele>
        <time>2025-10-17T09:59:37Z</time>
      </trkpt>
      <trkpt lat="50.45681" lon="2.98196">
        <ele>27</ele>
        <time>2025-10-17T09:59:39Z</time>
      </trkpt>
      <trkpt lat="50.45541" lon="2.97994">
        <ele>30</ele>
        <time>2025-10-17T10:00:23Z</time>
      </trkpt>
      <trkpt lat="50.45523" lon="2.97978">
        <ele>31</ele>
        <time>2025-10-17T10:00:28Z</time>
      </trkpt>
      <trkpt lat="50.45514" lon="2.97974">
        <ele>31</ele>
        <time>2025-10-17T10:00:30Z</time>
      </trkpt>
      <trkpt lat="50.45515" lon="2.9795">
        <ele>32</ele>
        <time>2025-10-17T10:00:34Z</time>
      </trkpt>
      <trkpt lat="50.4551" lon="2.97937">
        <ele>32</ele>
        <time>2025-10-17T10:00:36Z</time>
      </trkpt>
      <trkpt lat="50.45503" lon="2.97858">
        <ele>34</ele>
        <time>2025-10-17T10:00:48Z</time>
      </trkpt>
      <trkpt lat="50.45499" lon="2.97688">
        <ele>33</ele>
        <time>2025-10-17T10:01:13Z</time>
      </trkpt>
      <trkpt lat="50.45495" lon="2.97655">
        <ele>32</ele>
        <time>2025-10-17T10:01:18Z</time>
      </trkpt>
      <trkpt lat="50.45483" lon="2.9762">
        <ele>31</ele>
        <time>2025-10-17T10:01:24Z</time>
      </trkpt>
      <trkpt lat="50.45465" lon="2.97595">
        <ele>29</ele>
        <time>2025-10-17T10:01:30Z</time>
      </trkpt>
      <trkpt lat="50.45452" lon="2.97588">
        <ele>29</ele>
        <time>2025-10-17T10:01:33Z</time>
      </trkpt>
      <trkpt lat="50.45439" lon="2.97593">
        <ele>28</ele>
        <time>2025-10-17T10:01:36Z</time>
      </trkpt>
      <trkpt lat="50.45435" lon="2.97591">
        <ele>28</ele>
        <time>2025-10-17T10:01:37Z</time>
      </trkpt>
      <trkpt lat="50.45426" lon="2.97583">
        <ele>27</ele>
        <time>2025-10-17T10:01:39Z</time>
      </trkpt>
      <trkpt lat="50.45419" lon="2.97561">
        <ele>28</ele>
        <time>2025-10-17T10:01:43Z</time>
      </trkpt>
      <trkpt lat="50.45411" lon="2.97551">
        <ele>28</ele>
        <time>2025-10-17T10:01:45Z</time>
      </trkpt>
      <trkpt lat="50.45397" lon="2.97549">
        <ele>28</ele>
        <time>2025-10-17T10:01:49Z</time>
      </trkpt>
      <trkpt lat="50.45376" lon="2.97561">
        <ele>27</ele>
        <time>2025-10-17T10:01:54Z</time>
      </trkpt>
      <trkpt lat="50.45364" lon="2.97571">
        <ele>27</ele>
        <time>2025-10-17T10:01:57Z</time>
      </trkpt>
      <trkpt lat="50.45355" lon="2.97587">
        <ele>27</ele>
        <time>2025-10-17T10:02:00Z</time>
      </trkpt>
      <trkpt lat="50.45307" lon="2.97716">
        <ele>26</ele>
        <time>2025-10-17T10:02:22Z</time>
      </trkpt>
      <trkpt lat="50.45303" lon="2.9771">
        <ele>26</ele>
        <time>2025-10-17T10:02:24Z</time>
      </trkpt>
      <trkpt lat="50.45289" lon="2.97734">
        <ele>27</ele>
        <time>2025-10-17T10:02:28Z</time>
      </trkpt>
      <trkpt lat="50.45276" lon="2.9775">
        <ele>28</ele>
        <time>2025-10-17T10:02:32Z</time>
      </trkpt>
      <trkpt lat="50.45249" lon="2.97769">
        <ele>30</ele>
        <time>2025-10-17T10:02:39Z</time>
      </trkpt>
      <trkpt lat="50.45218" lon="2.97775">
        <ele>29</ele>
        <time>2025-10-17T10:02:47Z</time>
      </trkpt>
      <trkpt lat="50.45202" lon="2.97773">
        <ele>29</ele>
        <time>2025-10-17T10:02:50Z</time>
      </trkpt>
      <trkpt lat="50.45178" lon="2.97761">
        <ele>28</ele>
        <time>2025-10-17T10:02:56Z</time>
      </trkpt>
      <trkpt lat="50.45154" lon="2.97736">
        <ele>27</ele>
        <time>2025-10-17T10:03:03Z</time>
      </trkpt>
      <trkpt lat="50.45006" lon="2.97487">
        <ele>23</ele>
        <time>2025-10-17T10:03:54Z</time>
      </trkpt>
      <trkpt lat="50.45023" lon="2.97484">
        <ele>24</ele>
        <time>2025-10-17T10:03:58Z</time>
      </trkpt>
      <trkpt lat="50.45092" lon="2.9759">
        <ele>24</ele>
        <time>2025-10-17T10:04:20Z</time>
      </trkpt>
      <trkpt lat="50.45107" lon="2.97621">
        <ele>25</ele>
        <time>2025-10-17T10:04:26Z</time>
      </trkpt>
      <trkpt lat="50.45109" lon="2.97634">
        <ele>25</ele>
        <time>2025-10-17T10:04:28Z</time>
      </trkpt>
      <trkpt lat="50.45065" lon="2.97698">
        <ele>26</ele>
        <time>2025-10-17T10:04:42Z</time>
      </trkpt>
      <trkpt lat="50.45025" lon="2.97742">
        <ele>26</ele>
        <time>2025-10-17T10:04:53Z</time>
      </trkpt>
      <trkpt lat="50.44991" lon="2.97802">
        <ele>25</ele>
        <time>2025-10-17T10:05:05Z</time>
      </trkpt>
      <trkpt lat="50.44949" lon="2.97864">
        <ele>25</ele>
        <time>2025-10-17T10:05:19Z</time>
      </trkpt>
      <trkpt lat="50.4487" lon="2.97972">
        <ele>23</ele>
        <time>2025-10-17T10:05:43Z</time>
      </trkpt>
      <trkpt lat="50.44824" lon="2.98044">
        <ele>24</ele>
        <time>2025-10-17T10:05:58Z</time>
      </trkpt>
      <trkpt lat="50.44791" lon="2.98084">
        <ele>26</ele>
        <time>2025-10-17T10:06:08Z</time>
      </trkpt>
      <trkpt lat="50.44743" lon="2.98162">
        <ele>25</ele>
        <time>2025-10-17T10:06:24Z</time>
      </trkpt>
      <trkpt lat="50.44708" lon="2.98209">
        <ele>26</ele>
        <time>2025-10-17T10:06:35Z</time>
      </trkpt>
      <trkpt lat="50.44693" lon="2.98225">
        <ele>26</ele>
        <time>2025-10-17T10:06:39Z</time>
      </trkpt>
      <trkpt lat="50.44621" lon="2.98336">
        <ele>27</ele>
        <time>2025-10-17T10:07:03Z</time>
      </trkpt>
      <trkpt lat="50.44542" lon="2.98442">
        <ele>26</ele>
        <time>2025-10-17T10:07:27Z</time>
      </trkpt>
      <trkpt lat="50.44281" lon="2.98828">
        <ele>27</ele>
        <time>2025-10-17T10:08:51Z</time>
      </trkpt>
      <trkpt lat="50.44236" lon="2.98887">
        <ele>25</ele>
        <time>2025-10-17T10:09:04Z</time>
      </trkpt>
      <trkpt lat="50.44113" lon="2.99062">
        <ele>26</ele>
        <time>2025-10-17T10:09:43Z</time>
      </trkpt>
      <trkpt lat="50.44084" lon="2.99108">
        <ele>26</ele>
        <time>2025-10-17T10:09:53Z</time>
      </trkpt>
      <trkpt lat="50.44079" lon="2.9911">
        <ele>26</ele>
        <time>2025-10-17T10:09:54Z</time>
      </trkpt>
      <trkpt lat="50.44049" lon="2.99144">
        <ele>26</ele>
        <time>2025-10-17T10:10:03Z</time>
      </trkpt>
      <trkpt lat="50.44032" lon="2.99168">
        <ele>26</ele>
        <time>2025-10-17T10:10:08Z</time>
      </trkpt>
      <trkpt lat="50.44026" lon="2.99173">
        <ele>26</ele>
        <time>2025-10-17T10:10:10Z</time>
      </trkpt>
      <trkpt lat="50.4402" lon="2.99173">
        <ele>25</ele>
        <time>2025-10-17T10:10:11Z</time>
      </trkpt>
      <trkpt lat="50.44007" lon="2.99196">
        <ele>25</ele>
        <time>2025-10-17T10:10:16Z</time>
      </trkpt>
      <trkpt lat="50.43926" lon="2.99311">
        <ele>24</ele>
        <time>2025-10-17T10:10:41Z</time>
      </trkpt>
      <trkpt lat="50.43978" lon="2.99428">
        <ele>27</ele>
        <time>2025-10-17T10:11:02Z</time>
      </trkpt>
      <trkpt lat="50.43943" lon="2.99458">
        <ele>27</ele>
        <time>2025-10-17T10:11:12Z</time>
      </trkpt>
      <trkpt lat="50.43908" lon="2.99496">
        <ele>28</ele>
        <time>2025-10-17T10:11:22Z</time>
      </trkpt>
      <trkpt lat="50.43911" lon="2.99515">
        <ele>28</ele>
        <time>2025-10-17T10:11:24Z</time>
      </trkpt>
      <trkpt lat="50.43924" lon="2.99544">
        <ele>28</ele>
        <time>2025-10-17T10:11:30Z</time>
      </trkpt>
      <trkpt lat="50.43934" lon="2.99583">
        <ele>27</ele>
        <time>2025-10-17T10:11:36Z</time>
      </trkpt>
      <trkpt lat="50.43938" lon="2.99637">
        <ele>27</ele>
        <time>2025-10-17T10:11:44Z</time>
      </trkpt>
      <trkpt lat="50.43931" lon="2.99686">
        <ele>27</ele>
        <time>2025-10-17T10:11:52Z</time>
      </trkpt>
      <trkpt lat="50.43918" lon="2.99718">
        <ele>27</ele>
        <time>2025-10-17T10:11:57Z</time>
      </trkpt>
      <trkpt lat="50.43897" lon="2.99751">
        <ele>27</ele>
        <time>2025-10-17T10:12:04Z</time>
      </trkpt>
      <trkpt lat="50.43877" lon="2.99767">
        <ele>27</ele>
        <time>2025-10-17T10:12:09Z</time>
      </trkpt>
      <trkpt lat="50.43851" lon="2.99777">
        <ele>26</ele>
        <time>2025-10-17T10:12:16Z</time>
      </trkpt>
      <trkpt lat="50.43829" lon="2.99775">
        <ele>26</ele>
        <time>2025-10-17T10:12:21Z</time>
      </trkpt>
      <trkpt lat="50.43806" lon="2.99766">
        <ele>26</ele>
        <time>2025-10-17T10:12:26Z</time>
      </trkpt>
      <trkpt lat="50.43781" lon="2.99743">
        <ele>25</ele>
        <time>2025-10-17T10:12:33Z</time>
      </trkpt>
      <trkpt lat="50.43759" lon="2.99717">
        <ele>24</ele>
        <time>2025-10-17T10:12:39Z</time>
      </trkpt>
      <trkpt lat="50.43742" lon="2.99704">
        <ele>24</ele>
        <time>2025-10-17T10:12:44Z</time>
      </trkpt>
      <trkpt lat="50.43727" lon="2.99717">
        <ele>24</ele>
        <time>2025-10-17T10:12:48Z</time>
      </trkpt>
      <trkpt lat="50.43691" lon="2.99757">
        <ele>25</ele>
        <time>2025-10-17T10:12:58Z</time>
      </trkpt>
      <trkpt lat="50.43677" lon="2.99795">
        <ele>25</ele>
        <time>2025-10-17T10:13:05Z</time>
      </trkpt>
      <trkpt lat="50.4368" lon="2.99803">
        <ele>25</ele>
        <time>2025-10-17T10:13:06Z</time>
      </trkpt>
      <trkpt lat="50.43659" lon="2.99875">
        <ele>26</ele>
        <time>2025-10-17T10:13:18Z</time>
      </trkpt>
      <trkpt lat="50.43665" lon="2.99878">
        <ele>26</ele>
        <time>2025-10-17T10:13:19Z</time>
      </trkpt>
      <trkpt lat="50.43684" lon="2.99818">
        <ele>25</ele>
        <time>2025-10-17T10:13:29Z</time>
      </trkpt>
      <trkpt lat="50.43689" lon="2.99806">
        <ele>25</ele>
        <time>2025-10-17T10:13:31Z</time>
      </trkpt>
      <trkpt lat="50.43694" lon="2.99805">
        <ele>25</ele>
        <time>2025-10-17T10:13:33Z</time>
      </trkpt>
      <trkpt lat="50.43706" lon="2.99821">
        <ele>25</ele>
        <time>2025-10-17T10:13:36Z</time>
      </trkpt>
      <trkpt lat="50.4372" lon="2.99834">
        <ele>26</ele>
        <time>2025-10-17T10:13:40Z</time>
      </trkpt>
      <trkpt lat="50.43733" lon="2.99853">
        <ele>26</ele>
        <time>2025-10-17T10:13:44Z</time>
      </trkpt>
      <trkpt lat="50.43748" lon="2.99892">
        <ele>26</ele>
        <time>2025-10-17T10:13:51Z</time>
      </trkpt>
      <trkpt lat="50.43752" lon="2.9991">
        <ele>26</ele>
        <time>2025-10-17T10:13:54Z</time>
      </trkpt>
      <trkpt lat="50.43714" lon="2.99983">
        <ele>26</ele>
        <time>2025-10-17T10:14:08Z</time>
      </trkpt>
      <trkpt lat="50.43683" lon="3.00055">
        <ele>25</ele>
        <time>2025-10-17T10:14:21Z</time>
      </trkpt>
      <trkpt lat="50.43663" lon="3.00115">
        <ele>24</ele>
        <time>2025-10-17T10:14:31Z</time>
      </trkpt>
      <trkpt lat="50.43646" lon="3.00187">
        <ele>25</ele>
        <time>2025-10-17T10:14:42Z</time>
      </trkpt>
      <trkpt lat="50.43637" lon="3.00249">
        <ele>26</ele>
        <time>2025-10-17T10:14:52Z</time>
      </trkpt>
      <trkpt lat="50.43632" lon="3.00308">
        <ele>26</ele>
        <time>2025-10-17T10:15:01Z</time>
      </trkpt>
      <trkpt lat="50.43627" lon="3.00559">
        <ele>25</ele>
        <time>2025-10-17T10:15:38Z</time>
      </trkpt>
      <trkpt lat="50.43617" lon="3.00605">
        <ele>25</ele>
        <time>2025-10-17T10:15:45Z</time>
      </trkpt>
      <trkpt lat="50.43624" lon="3.00641">
        <ele>24</ele>
        <time>2025-10-17T10:15:51Z</time>
      </trkpt>
      <trkpt lat="50.43629" lon="3.0096">
        <ele>23</ele>
        <time>2025-10-17T10:16:38Z</time>
      </trkpt>
      <trkpt lat="50.43628" lon="3.0103">
        <ele>23</ele>
        <time>2025-10-17T10:16:49Z</time>
      </trkpt>
      <trkpt lat="50.43603" lon="3.0122">
        <ele>23</ele>
        <time>2025-10-17T10:17:18Z</time>
      </trkpt>
      <trkpt lat="50.43592" lon="3.01284">
        <ele>22</ele>
        <time>2025-10-17T10:17:27Z</time>
      </trkpt>
      <trkpt lat="50.43569" lon="3.01345">
        <ele>22</ele>
        <time>2025-10-17T10:17:38Z</time>
      </trkpt>
      <trkpt lat="50.43571" lon="3.01458">
        <ele>25</ele>
        <time>2025-10-17T10:17:55Z</time>
      </trkpt>
      <trkpt lat="50.43591" lon="3.01586">
        <ele>24</ele>
        <time>2025-10-17T10:18:14Z</time>
      </trkpt>
      <trkpt lat="50.43617" lon="3.0171">
        <ele>22</ele>
        <time>2025-10-17T10:18:34Z</time>
      </trkpt>
      <trkpt lat="50.43629" lon="3.0174">
        <ele>22</ele>
        <time>2025-10-17T10:18:39Z</time>
      </trkpt>
      <trkpt lat="50.43641" lon="3.01753">
        <ele>22</ele>
        <time>2025-10-17T10:18:42Z</time>
      </trkpt>
      <trkpt lat="50.43695" lon="3.01759">
        <ele>23</ele>
        <time>2025-10-17T10:18:55Z</time>
      </trkpt>
      <trkpt lat="50.43707" lon="3.01767">
        <ele>23</ele>
        <time>2025-10-17T10:18:58Z</time>
      </trkpt>
      <trkpt lat="50.43711" lon="3.0178">
        <ele>23</ele>
        <time>2025-10-17T10:19:00Z</time>
      </trkpt>
      <trkpt lat="50.43717" lon="3.01829">
        <ele>23</ele>
        <time>2025-10-17T10:19:08Z</time>
      </trkpt>
      <trkpt lat="50.43731" lon="3.01906">
        <ele>24</ele>
        <time>2025-10-17T10:19:20Z</time>
      </trkpt>
      <trkpt lat="50.43741" lon="3.01937">
        <ele>25</ele>
        <time>2025-10-17T10:19:25Z</time>
      </trkpt>
      <trkpt lat="50.4375" lon="3.01949">
        <ele>25</ele>
        <time>2025-10-17T10:19:28Z</time>
      </trkpt>
      <trkpt lat="50.4376" lon="3.01951">
        <ele>25</ele>
        <time>2025-10-17T10:19:30Z</time>
      </trkpt>
      <trkpt lat="50.43805" lon="3.01946">
        <ele>26</ele>
        <time>2025-10-17T10:19:40Z</time>
      </trkpt>
      <trkpt lat="50.43814" lon="3.01949">
        <ele>26</ele>
        <time>2025-10-17T10:19:43Z</time>
      </trkpt>
      <trkpt lat="50.44028" lon="3.02155">
        <ele>28</ele>
        <time>2025-10-17T10:20:41Z</time>
      </trkpt>
      <trkpt lat="50.43945" lon="3.02497">
        <ele>27</ele>
        <time>2025-10-17T10:21:36Z</time>
      </trkpt>
      <trkpt lat="50.43891" lon="3.02443">
        <ele>27</ele>
        <time>2025-10-17T10:21:51Z</time>
      </trkpt>
      <trkpt lat="50.43886" lon="3.02441">
        <ele>27</ele>
        <time>2025-10-17T10:21:52Z</time>
      </trkpt>
      <trkpt lat="50.4381" lon="3.02445">
        <ele>27</ele>
        <time>2025-10-17T10:22:10Z</time>
      </trkpt>
      <trkpt lat="50.43804" lon="3.02432">
        <ele>27</ele>
        <time>2025-10-17T10:22:12Z</time>
      </trkpt>
      <trkpt lat="50.43811" lon="3.02396">
        <ele>27</ele>
        <time>2025-10-17T10:22:18Z</time>
      </trkpt>
      <trkpt lat="50.43646" lon="3.02185">
        <ele>32</ele>
        <time>2025-10-17T10:23:07Z</time>
      </trkpt>
      <trkpt lat="50.43597" lon="3.02165">
        <ele>36</ele>
        <time>2025-10-17T10:23:19Z</time>
      </trkpt>
      <trkpt lat="50.43566" lon="3.02129">
        <ele>37</ele>
        <time>2025-10-17T10:23:28Z</time>
      </trkpt>
      <trkpt lat="50.43535" lon="3.02121">
        <ele>39</ele>
        <time>2025-10-17T10:23:35Z</time>
      </trkpt>
      <trkpt lat="50.43505" lon="3.02106">
        <ele>41</ele>
        <time>2025-10-17T10:23:43Z</time>
      </trkpt>
      <trkpt lat="50.43451" lon="3.02204">
        <ele>46</ele>
        <time>2025-10-17T10:24:02Z</time>
      </trkpt>
      <trkpt lat="50.43414" lon="3.02223">
        <ele>46</ele>
        <time>2025-10-17T10:24:11Z</time>
      </trkpt>
      <trkpt lat="50.43377" lon="3.02226">
        <ele>49</ele>
        <time>2025-10-17T10:24:20Z</time>
      </trkpt>
      <trkpt lat="50.43371" lon="3.02249">
        <ele>49</ele>
        <time>2025-10-17T10:24:23Z</time>
      </trkpt>
      <trkpt lat="50.43372" lon="3.02271">
        <ele>48</ele>
        <time>2025-10-17T10:24:27Z</time>
      </trkpt>
      <trkpt lat="50.43386" lon="3.02268">
        <ele>47</ele>
        <time>2025-10-17T10:24:30Z</time>
      </trkpt>
      <trkpt lat="50.43428" lon="3.0227">
        <ele>46</ele>
        <time>2025-10-17T10:24:40Z</time>
      </trkpt>
      <trkpt lat="50.43478" lon="3.02259">
        <ele>44</ele>
        <time>2025-10-17T10:24:52Z</time>
      </trkpt>
      <trkpt lat="50.43526" lon="3.0229">
        <ele>42</ele>
        <time>2025-10-17T10:25:04Z</time>
      </trkpt>
      <trkpt lat="50.43529" lon="3.02323">
        <ele>41</ele>
        <time>2025-10-17T10:25:09Z</time>
      </trkpt>
      <trkpt lat="50.43522" lon="3.02368">
        <ele>40</ele>
        <time>2025-10-17T10:25:16Z</time>
      </trkpt>
      <trkpt lat="50.43513" lon="3.02377">
        <ele>40</ele>
        <time>2025-10-17T10:25:18Z</time>
      </trkpt>
      <trkpt lat="50.43506" lon="3.0239">
        <ele>41</ele>
        <time>2025-10-17T10:25:21Z</time>
      </trkpt>
      <trkpt lat="50.43503" lon="3.02406">
        <ele>40</ele>
        <time>2025-10-17T10:25:23Z</time>
      </trkpt>
      <trkpt lat="50.43505" lon="3.02418">
        <ele>40</ele>
        <time>2025-10-17T10:25:25Z</time>
      </trkpt>
      <trkpt lat="50.43472" lon="3.02425">
        <ele>40</ele>
        <time>2025-10-17T10:25:33Z</time>
      </trkpt>
      <trkpt lat="50.43416" lon="3.02421">
        <ele>41</ele>
        <time>2025-10-17T10:25:46Z</time>
      </trkpt>
      <trkpt lat="50.43393" lon="3.02414">
        <ele>39</ele>
        <time>2025-10-17T10:25:51Z</time>
      </trkpt>
      <trkpt lat="50.43388" lon="3.02432">
        <ele>37</ele>
        <time>2025-10-17T10:25:54Z</time>
      </trkpt>
      <trkpt lat="50.43402" lon="3.02456">
        <ele>36</ele>
        <time>2025-10-17T10:25:59Z</time>
      </trkpt>
      <trkpt lat="50.43461" lon="3.02532">
        <ele>31</ele>
        <time>2025-10-17T10:26:17Z</time>
      </trkpt>
      <trkpt lat="50.43473" lon="3.02543">
        <ele>30</ele>
        <time>2025-10-17T10:26:20Z</time>
      </trkpt>
      <trkpt lat="50.43487" lon="3.02568">
        <ele>28</ele>
        <time>2025-10-17T10:26:25Z</time>
      </trkpt>
      <trkpt lat="50.43525" lon="3.02618">
        <ele>24</ele>
        <time>2025-10-17T10:26:37Z</time>
      </trkpt>
      <trkpt lat="50.4355" lon="3.02657">
        <ele>22</ele>
        <time>2025-10-17T10:26:45Z</time>
      </trkpt>
      <trkpt lat="50.43547" lon="3.02664">
        <ele>21</ele>
        <time>2025-10-17T10:26:46Z</time>
      </trkpt>
      <trkpt lat="50.43483" lon="3.02629">
        <ele>24</ele>
        <time>2025-10-17T10:27:02Z</time>
      </trkpt>
      <trkpt lat="50.43463" lon="3.02607">
        <ele>25</ele>
        <time>2025-10-17T10:27:08Z</time>
      </trkpt>
      <trkpt lat="50.43451" lon="3.02581">
        <ele>27</ele>
        <time>2025-10-17T10:27:12Z</time>
      </trkpt>
      <trkpt lat="50.43443" lon="3.02571">
        <ele>27</ele>
        <time>2025-10-17T10:27:15Z</time>
      </trkpt>
      <trkpt lat="50.43427" lon="3.02558">
        <ele>28</ele>
        <time>2025-10-17T10:27:19Z</time>
      </trkpt>
      <trkpt lat="50.43395" lon="3.02539">
        <ele>27</ele>
        <time>2025-10-17T10:27:27Z</time>
      </trkpt>
      <trkpt lat="50.43353" lon="3.02497">
        <ele>25</ele>
        <time>2025-10-17T10:27:39Z</time>
      </trkpt>
      <trkpt lat="50.4331" lon="3.02445">
        <ele>27</ele>
        <time>2025-10-17T10:27:51Z</time>
      </trkpt>
      <trkpt lat="50.43257" lon="3.02388">
        <ele>27</ele>
        <time>2025-10-17T10:28:06Z</time>
      </trkpt>
      <trkpt lat="50.43215" lon="3.02354">
        <ele>28</ele>
        <time>2025-10-17T10:28:17Z</time>
      </trkpt>
      <trkpt lat="50.43106" lon="3.02275">
        <ele>34</ele>
        <time>2025-10-17T10:28:45Z</time>
      </trkpt>
      <trkpt lat="50.43103" lon="3.02274">
        <ele>34</ele>
        <time>2025-10-17T10:28:46Z</time>
      </trkpt>
      <trkpt lat="50.43092" lon="3.0228">
        <ele>33</ele>
        <time>2025-10-17T10:28:49Z</time>
      </trkpt>
      <trkpt lat="50.43071" lon="3.02312">
        <ele>30</ele>
        <time>2025-10-17T10:28:56Z</time>
      </trkpt>
      <trkpt lat="50.43063" lon="3.02313">
        <ele>29</ele>
        <time>2025-10-17T10:28:58Z</time>
      </trkpt>
      <trkpt lat="50.43043" lon="3.02307">
        <ele>29</ele>
        <time>2025-10-17T10:29:02Z</time>
      </trkpt>
      <trkpt lat="50.43034" lon="3.02307">
        <ele>29</ele>
        <time>2025-10-17T10:29:04Z</time>
      </trkpt>
      <trkpt lat="50.42992" lon="3.02344">
        <ele>27</ele>
        <time>2025-10-17T10:29:16Z</time>
      </trkpt>
      <trkpt lat="50.42987" lon="3.02338">
        <ele>26</ele>
        <time>2025-10-17T10:29:17Z</time>
      </trkpt>
      <trkpt lat="50.42962" lon="3.02269">
        <ele>26</ele>
        <time>2025-10-17T10:29:29Z</time>
      </trkpt>
      <trkpt lat="50.42961" lon="3.02259">
        <ele>26</ele>
        <time>2025-10-17T10:29:30Z</time>
      </trkpt>
      <trkpt lat="50.42958" lon="3.02253">
        <ele>25</ele>
        <time>2025-10-17T10:29:32Z</time>
      </trkpt>
      <trkpt lat="50.42948" lon="3.02248">
        <ele>25</ele>
        <time>2025-10-17T10:29:34Z</time>
      </trkpt>
      <trkpt lat="50.42939" lon="3.02237">
        <ele>24</ele>
        <time>2025-10-17T10:29:37Z</time>
      </trkpt>
      <trkpt lat="50.42928" lon="3.02261">
        <ele>24</ele>
        <time>2025-10-17T10:29:41Z</time>
      </trkpt>
      <trkpt lat="50.42899" lon="3.02286">
        <ele>23</ele>
        <time>2025-10-17T10:29:49Z</time>
      </trkpt>
      <trkpt lat="50.42892" lon="3.02306">
        <ele>23</ele>
        <time>2025-10-17T10:29:52Z</time>
      </trkpt>
      <trkpt lat="50.42891" lon="3.02331">
        <ele>23</ele>
        <time>2025-10-17T10:29:56Z</time>
      </trkpt>
      <trkpt lat="50.42888" lon="3.02343">
        <ele>23</ele>
        <time>2025-10-17T10:29:58Z</time>
      </trkpt>
      <trkpt lat="50.42773" lon="3.02656">
        <ele>20</ele>
        <time>2025-10-17T10:30:52Z</time>
      </trkpt>
      <trkpt lat="50.42483" lon="3.03362">
        <ele>25</ele>
        <time>2025-10-17T10:32:57Z</time>
      </trkpt>
      <trkpt lat="50.42439" lon="3.03484">
        <ele>26</ele>
        <time>2025-10-17T10:33:17Z</time>
      </trkpt>
      <trkpt lat="50.42406" lon="3.03615">
        <ele>26</ele>
        <time>2025-10-17T10:33:38Z</time>
      </trkpt>
      <trkpt lat="50.42383" lon="3.03726">
        <ele>26</ele>
        <time>2025-10-17T10:33:56Z</time>
      </trkpt>
      <trkpt lat="50.42366" lon="3.03853">
        <ele>22</ele>
        <time>2025-10-17T10:34:15Z</time>
      </trkpt>
      <trkpt lat="50.42341" lon="3.0411">
        <ele>22</ele>
        <time>2025-10-17T10:34:54Z</time>
      </trkpt>
      <trkpt lat="50.4233" lon="3.0419">
        <ele>22</ele>
        <time>2025-10-17T10:35:06Z</time>
      </trkpt>
      <trkpt lat="50.42302" lon="3.04333">
        <ele>25</ele>
        <time>2025-10-17T10:35:28Z</time>
      </trkpt>
      <trkpt lat="50.42276" lon="3.04435">
        <ele>26</ele>
        <time>2025-10-17T10:35:45Z</time>
      </trkpt>
      <trkpt lat="50.42295" lon="3.04462">
        <ele>25</ele>
        <time>2025-10-17T10:35:51Z</time>
      </trkpt>
      <trkpt lat="50.42324" lon="3.04512">
        <ele>25</ele>
        <time>2025-10-17T10:36:01Z</time>
      </trkpt>
      <trkpt lat="50.42429" lon="3.04664">
        <ele>22</ele>
        <time>2025-10-17T10:36:34Z</time>
      </trkpt>
      <trkpt lat="50.42474" lon="3.0471">
        <ele>22</ele>
        <time>2025-10-17T10:36:46Z</time>
      </trkpt>
      <trkpt lat="50.42503" lon="3.04746">
        <ele>22</ele>
        <time>2025-10-17T10:36:55Z</time>
      </trkpt>
      <trkpt lat="50.42555" lon="3.04835">
        <ele>23</ele>
        <time>2025-10-17T10:37:13Z</time>
      </trkpt>
      <trkpt lat="50.42607" lon="3.04934">
        <ele>23</ele>
        <time>2025-10-17T10:37:32Z</time>
      </trkpt>
      <trkpt lat="50.42676" lon="3.05094">
        <ele>22</ele>
        <time>2025-10-17T10:38:01Z</time>
      </trkpt>
      <trkpt lat="50.4268" lon="3.05107">
        <ele>22</ele>
        <time>2025-10-17T10:38:03Z</time>
      </trkpt>
      <trkpt lat="50.42683" lon="3.05136">
        <ele>23</ele>
        <time>2025-10-17T10:38:07Z</time>
      </trkpt>
      <trkpt lat="50.42683" lon="3.05235">
        <ele>24</ele>
        <time>2025-10-17T10:38:22Z</time>
      </trkpt>
      <trkpt lat="50.42685" lon="3.05263">
        <ele>24</ele>
        <time>2025-10-17T10:38:26Z</time>
      </trkpt>
      <trkpt lat="50.42672" lon="3.05305">
        <ele>23</ele>
        <time>2025-10-17T10:38:33Z</time>
      </trkpt>
      <trkpt lat="50.42657" lon="3.05424">
        <ele>23</ele>
        <time>2025-10-17T10:38:51Z</time>
      </trkpt>
      <trkpt lat="50.42876" lon="3.05553">
        <ele>23</ele>
        <time>2025-10-17T10:39:46Z</time>
      </trkpt>
      <trkpt lat="50.42899" lon="3.05569">
        <ele>23</ele>
        <time>2025-10-17T10:39:52Z</time>
      </trkpt>
      <trkpt lat="50.42919" lon="3.05593">
        <ele>23</ele>
        <time>2025-10-17T10:39:58Z</time>
      </trkpt>
      <trkpt lat="50.42962" lon="3.05659">
        <ele>23</ele>
        <time>2025-10-17T10:40:12Z</time>
      </trkpt>
      <trkpt lat="50.42826" lon="3.05867">
        <ele>22</ele>
        <time>2025-10-17T10:40:56Z</time>
      </trkpt>
      <trkpt lat="50.42808" lon="3.05902">
        <ele>23</ele>
        <time>2025-10-17T10:41:03Z</time>
      </trkpt>
      <trkpt lat="50.42824" lon="3.05925">
        <ele>23</ele>
        <time>2025-10-17T10:41:08Z</time>
      </trkpt>
      <trkpt lat="50.42773" lon="3.06005">
        <ele>23</ele>
        <time>2025-10-17T10:41:25Z</time>
      </trkpt>
      <trkpt lat="50.42756" lon="3.06026">
        <ele>23</ele>
        <time>2025-10-17T10:41:30Z</time>
      </trkpt>
      <trkpt lat="50.42751" lon="3.06046">
        <ele>23</ele>
        <time>2025-10-17T10:41:33Z</time>
      </trkpt>
      <trkpt lat="50.4274" lon="3.06068">
        <ele>23</ele>
        <time>2025-10-17T10:41:37Z</time>
      </trkpt>
      <trkpt lat="50.42739" lon="3.06099">
        <ele>23</ele>
        <time>2025-10-17T10:41:42Z</time>
      </trkpt>
      <trkpt lat="50.42699" lon="3.06157">
        <ele>21</ele>
        <time>2025-10-17T10:41:54Z</time>
      </trkpt>
      <trkpt lat="50.42707" lon="3.06178">
        <ele>21</ele>
        <time>2025-10-17T10:41:58Z</time>
      </trkpt>
      <trkpt lat="50.42702" lon="3.06208">
        <ele>21</ele>
        <time>2025-10-17T10:42:03Z</time>
      </trkpt>
      <trkpt lat="50.42679" lon="3.06259">
        <ele>21</ele>
        <time>2025-10-17T10:42:12Z</time>
      </trkpt>
      <trkpt lat="50.42663" lon="3.06276">
        <ele>21</ele>
        <time>2025-10-17T10:42:17Z</time>
      </trkpt>
      <trkpt lat="50.42674" lon="3.06296">
        <ele>21</ele>
        <time>2025-10-17T10:42:20Z</time>
      </trkpt>
      <trkpt lat="50.42717" lon="3.06359">
        <ele>21</ele>
        <time>2025-10-17T10:42:34Z</time>
      </trkpt>
      <trkpt lat="50.42744" lon="3.06415">
        <ele>20</ele>
        <time>2025-10-17T10:42:45Z</time>
      </trkpt>
      <trkpt lat="50.42755" lon="3.06444">
        <ele>19</ele>
        <time>2025-10-17T10:42:50Z</time>
      </trkpt>
      <trkpt lat="50.42779" lon="3.06491">
        <ele>19</ele>
        <time>2025-10-17T10:42:59Z</time>
      </trkpt>
      <trkpt lat="50.42813" lon="3.06548">
        <ele>19</ele>
        <time>2025-10-17T10:43:10Z</time>
      </trkpt>
      <trkpt lat="50.42816" lon="3.06565">
        <ele>19</ele>
        <time>2025-10-17T10:43:13Z</time>
      </trkpt>
      <trkpt lat="50.42856" lon="3.06629">
        <ele>20</ele>
        <time>2025-10-17T10:43:26Z</time>
      </trkpt>
      <trkpt lat="50.4286" lon="3.0664">
        <ele>20</ele>
        <time>2025-10-17T10:43:28Z</time>
      </trkpt>
      <trkpt lat="50.4285" lon="3.06693">
        <ele>21</ele>
        <time>2025-10-17T10:43:36Z</time>
      </trkpt>
      <trkpt lat="50.4278" lon="3.068">
        <ele>22</ele>
        <time>2025-10-17T10:43:59Z</time>
      </trkpt>
      <trkpt lat="50.42775" lon="3.06837">
        <ele>22</ele>
        <time>2025-10-17T10:44:05Z</time>
      </trkpt>
      <trkpt lat="50.42805" lon="3.06868">
        <ele>23</ele>
        <time>2025-10-17T10:44:13Z</time>
      </trkpt>
      <trkpt lat="50.42824" lon="3.06869">
        <ele>24</ele>
        <time>2025-10-17T10:44:18Z</time>
      </trkpt>
      <trkpt lat="50.42891" lon="3.06793">
        <ele>24</ele>
        <time>2025-10-17T10:44:37Z</time>
      </trkpt>
      <trkpt lat="50.4292" lon="3.06751">
        <ele>23</ele>
        <time>2025-10-17T10:44:46Z</time>
      </trkpt>
      <trkpt lat="50.42954" lon="3.06709">
        <ele>21</ele>
        <time>2025-10-17T10:44:56Z</time>
      </trkpt>
      <trkpt lat="50.43002" lon="3.06659">
        <ele>21</ele>
        <time>2025-10-17T10:45:10Z</time>
      </trkpt>
      <trkpt lat="50.43041" lon="3.06641">
        <ele>22</ele>
        <time>2025-10-17T10:45:19Z</time>
      </trkpt>
      <trkpt lat="50.43078" lon="3.06681">
        <ele>24</ele>
        <time>2025-10-17T10:45:30Z</time>
      </trkpt>
      <trkpt lat="50.43091" lon="3.06763">
        <ele>23</ele>
        <time>2025-10-17T10:45:42Z</time>
      </trkpt>
      <trkpt lat="50.43097" lon="3.06768">
        <ele>23</ele>
        <time>2025-10-17T10:45:44Z</time>
      </trkpt>
      <trkpt lat="50.43106" lon="3.0677">
        <ele>23</ele>
        <time>2025-10-17T10:45:46Z</time>
      </trkpt>
      <trkpt lat="50.43114" lon="3.06783">
        <ele>22</ele>
        <time>2025-10-17T10:45:49Z</time>
      </trkpt>
      <trkpt lat="50.43111" lon="3.06806">
        <ele>22</ele>
        <time>2025-10-17T10:45:52Z</time>
      </trkpt>
      <trkpt lat="50.43142" lon="3.06855">
        <ele>22</ele>
        <time>2025-10-17T10:46:02Z</time>
      </trkpt>
      <trkpt lat="50.4316" lon="3.06875">
        <ele>21</ele>
        <time>2025-10-17T10:46:08Z</time>
      </trkpt>
      <trkpt lat="50.43256" lon="3.06742">
        <ele>23</ele>
        <time>2025-10-17T10:46:37Z</time>
      </trkpt>
      <trkpt lat="50.43271" lon="3.0671">
        <ele>23</ele>
        <time>2025-10-17T10:46:43Z</time>
      </trkpt>
      <trkpt lat="50.43304" lon="3.06674">
        <ele>23</ele>
        <time>2025-10-17T10:46:53Z</time>
      </trkpt>
      <trkpt lat="50.4334" lon="3.06669">
        <ele>24</ele>
        <time>2025-10-17T10:47:01Z</time>
      </trkpt>
      <trkpt lat="50.43504" lon="3.0682">
        <ele>22</ele>
        <time>2025-10-17T10:47:46Z</time>
      </trkpt>
      <trkpt lat="50.43539" lon="3.06847">
        <ele>23</ele>
        <time>2025-10-17T10:47:55Z</time>
      </trkpt>
      <trkpt lat="50.4358" lon="3.06863">
        <ele>23</ele>
        <time>2025-10-17T10:48:05Z</time>
      </trkpt>
      <trkpt lat="50.43932" lon="3.06886">
        <ele>28</ele>
        <time>2025-10-17T10:49:27Z</time>
      </trkpt>
      <trkpt lat="50.4394" lon="3.06893">
        <ele>28</ele>
        <time>2025-10-17T10:49:29Z</time>
      </trkpt>
      <trkpt lat="50.43947" lon="3.06886">
        <ele>28</ele>
        <time>2025-10-17T10:49:31Z</time>
      </trkpt>
      <trkpt lat="50.43964" lon="3.06881">
        <ele>29</ele>
        <time>2025-10-17T10:49:35Z</time>
      </trkpt>
      <trkpt lat="50.43989" lon="3.06867">
        <ele>29</ele>
        <time>2025-10-17T10:49:41Z</time>
      </trkpt>
      <trkpt lat="50.44008" lon="3.06852">
        <ele>30</ele>
        <time>2025-10-17T10:49:46Z</time>
      </trkpt>
      <trkpt lat="50.44053" lon="3.06803">
        <ele>30</ele>
        <time>2025-10-17T10:49:59Z</time>
      </trkpt>
      <trkpt lat="50.44083" lon="3.06755">
        <ele>30</ele>
        <time>2025-10-17T10:50:09Z</time>
      </trkpt>
      <trkpt lat="50.44201" lon="3.06467">
        <ele>29</ele>
        <time>2025-10-17T10:51:00Z</time>
      </trkpt>
      <trkpt lat="50.44266" lon="3.06332">
        <ele>31</ele>
        <time>2025-10-17T10:51:25Z</time>
      </trkpt>
      <trkpt lat="50.44271" lon="3.06326">
        <ele>31</ele>
        <time>2025-10-17T10:51:26Z</time>
      </trkpt>
      <trkpt lat="50.44275" lon="3.06275">
        <ele>30</ele>
        <time>2025-10-17T10:51:34Z</time>
      </trkpt>
      <trkpt lat="50.4433" lon="3.0614">
        <ele>29</ele>
        <time>2025-10-17T10:51:58Z</time>
      </trkpt>
      <trkpt lat="50.44335" lon="3.06131">
        <ele>29</ele>
        <time>2025-10-17T10:52:00Z</time>
      </trkpt>
      <trkpt lat="50.44366" lon="3.06172">
        <ele>29</ele>
        <time>2025-10-17T10:52:09Z</time>
      </trkpt>
      <trkpt lat="50.44393" lon="3.06102">
        <ele>30</ele>
        <time>2025-10-17T10:52:21Z</time>
      </trkpt>
      <trkpt lat="50.4444" lon="3.06">
        <ele>30</ele>
        <time>2025-10-17T10:52:40Z</time>
      </trkpt>
      <trkpt lat="50.44433" lon="3.05996">
        <ele>29</ele>
        <time>2025-10-17T10:52:42Z</time>
      </trkpt>
      <trkpt lat="50.44434" lon="3.05979">
        <ele>29</ele>
        <time>2025-10-17T10:52:44Z</time>
      </trkpt>
      <trkpt lat="50.44445" lon="3.05956">
        <ele>30</ele>
        <time>2025-10-17T10:52:49Z</time>
      </trkpt>
      <trkpt lat="50.44462" lon="3.05909">
        <ele>31</ele>
        <time>2025-10-17T10:52:57Z</time>
      </trkpt>
      <trkpt lat="50.44508" lon="3.05944">
        <ele>32</ele>
        <time>2025-10-17T10:53:09Z</time>
      </trkpt>
      <trkpt lat="50.44567" lon="3.06006">
        <ele>33</ele>
        <time>2025-10-17T10:53:25Z</time>
      </trkpt>
      <trkpt lat="50.44596" lon="3.0605">
        <ele>33</ele>
        <time>2025-10-17T10:53:35Z</time>
      </trkpt>
      <trkpt lat="50.44631" lon="3.06079">
        <ele>34</ele>
        <time>2025-10-17T10:53:44Z</time>
      </trkpt>
      <trkpt lat="50.44639" lon="3.0609">
        <ele>34</ele>
        <time>2025-10-17T10:53:46Z</time>
      </trkpt>
      <trkpt lat="50.4465" lon="3.06082">
        <ele>34</ele>
        <time>2025-10-17T10:53:49Z</time>
      </trkpt>
      <trkpt lat="50.44657" lon="3.06092">
        <ele>34</ele>
        <time>2025-10-17T10:53:51Z</time>
      </trkpt>
      <trkpt lat="50.44669" lon="3.06102">
        <ele>34</ele>
        <time>2025-10-17T10:53:55Z</time>
      </trkpt>
      <trkpt lat="50.44701" lon="3.06098">
        <ele>35</ele>
        <time>2025-10-17T10:54:02Z</time>
      </trkpt>
      <trkpt lat="50.44755" lon="3.0606">
        <ele>35</ele>
        <time>2025-10-17T10:54:16Z</time>
      </trkpt>
      <trkpt lat="50.44763" lon="3.06064">
        <ele>35</ele>
        <time>2025-10-17T10:54:18Z</time>
      </trkpt>
      <trkpt lat="50.44768" lon="3.0606">
        <ele>35</ele>
        <time>2025-10-17T10:54:19Z</time>
      </trkpt>
      <trkpt lat="50.44783" lon="3.0608">
        <ele>36</ele>
        <time>2025-10-17T10:54:24Z</time>
      </trkpt>
      <trkpt lat="50.44779" lon="3.06142">
        <ele>37</ele>
        <time>2025-10-17T10:54:33Z</time>
      </trkpt>
      <trkpt lat="50.44775" lon="3.0616">
        <ele>37</ele>
        <time>2025-10-17T10:54:36Z</time>
      </trkpt>
      <trkpt lat="50.44776" lon="3.06207">
        <ele>38</ele>
        <time>2025-10-17T10:54:43Z</time>
      </trkpt>
      <trkpt lat="50.44778" lon="3.06215">
        <ele>38</ele>
        <time>2025-10-17T10:54:44Z</time>
      </trkpt>
      <trkpt lat="50.44799" lon="3.06248">
        <ele>39</ele>
        <time>2025-10-17T10:54:51Z</time>
      </trkpt>
      <trkpt lat="50.44816" lon="3.06284">
        <ele>42</ele>
        <time>2025-10-17T10:54:58Z</time>
      </trkpt>
      <trkpt lat="50.44834" lon="3.06312">
        <ele>45</ele>
        <time>2025-10-17T10:55:04Z</time>
      </trkpt>
      <trkpt lat="50.44842" lon="3.06339">
        <ele>48</ele>
        <time>2025-10-17T10:55:08Z</time>
      </trkpt>
      <trkpt lat="50.44841" lon="3.06378">
        <ele>49</ele>
        <time>2025-10-17T10:55:14Z</time>
      </trkpt>
      <trkpt lat="50.44843" lon="3.06398">
        <ele>51</ele>
        <time>2025-10-17T10:55:17Z</time>
      </trkpt>
      <trkpt lat="50.44839" lon="3.06425">
        <ele>51</ele>
        <time>2025-10-17T10:55:21Z</time>
      </trkpt>
      <trkpt lat="50.44849" lon="3.06469">
        <ele>51</ele>
        <time>2025-10-17T10:55:28Z</time>
      </trkpt>
      <trkpt lat="50.44861" lon="3.06494">
        <ele>52</ele>
        <time>2025-10-17T10:55:33Z</time>
      </trkpt>
      <trkpt lat="50.44887" lon="3.06524">
        <ele>52</ele>
        <time>2025-10-17T10:55:40Z</time>
      </trkpt>
      <trkpt lat="50.44902" lon="3.06531">
        <ele>53</ele>
        <time>2025-10-17T10:55:44Z</time>
      </trkpt>
      <trkpt lat="50.44936" lon="3.0653">
        <ele>53</ele>
        <time>2025-10-17T10:55:52Z</time>
      </trkpt>
      <trkpt lat="50.44959" lon="3.06516">
        <ele>53</ele>
        <time>2025-10-17T10:55:57Z</time>
      </trkpt>
      <trkpt lat="50.44975" lon="3.06494">
        <ele>53</ele>
        <time>2025-10-17T10:56:02Z</time>
      </trkpt>
      <trkpt lat="50.44985" lon="3.06476">
        <ele>53</ele>
        <time>2025-10-17T10:56:06Z</time>
      </trkpt>
      <trkpt lat="50.44997" lon="3.06442">
        <ele>53</ele>
        <time>2025-10-17T10:56:12Z</time>
      </trkpt>
      <trkpt lat="50.45005" lon="3.06401">
        <ele>52</ele>
        <time>2025-10-17T10:56:18Z</time>
      </trkpt>
      <trkpt lat="50.45005" lon="3.06383">
        <ele>51</ele>
        <time>2025-10-17T10:56:21Z</time>
      </trkpt>
      <trkpt lat="50.44998" lon="3.06333">
        <ele>47</ele>
        <time>2025-10-17T10:56:28Z</time>
      </trkpt>
      <trkpt lat="50.44992" lon="3.06319">
        <ele>47</ele>
        <time>2025-10-17T10:56:31Z</time>
      </trkpt>
      <trkpt lat="50.44954" lon="3.06282">
        <ele>47</ele>
        <time>2025-10-17T10:56:41Z</time>
      </trkpt>
      <trkpt lat="50.44935" lon="3.06271">
        <ele>47</ele>
        <time>2025-10-17T10:56:46Z</time>
      </trkpt>
      <trkpt lat="50.44917" lon="3.06268">
        <ele>48</ele>
        <time>2025-10-17T10:56:50Z</time>
      </trkpt>
      <trkpt lat="50.44897" lon="3.0628">
        <ele>48</ele>
        <time>2025-10-17T10:56:55Z</time>
      </trkpt>
      <trkpt lat="50.4486" lon="3.06289">
        <ele>46</ele>
        <time>2025-10-17T10:57:04Z</time>
      </trkpt>
      <trkpt lat="50.44845" lon="3.06285">
        <ele>44</ele>
        <time>2025-10-17T10:57:08Z</time>
      </trkpt>
      <trkpt lat="50.4484" lon="3.0628">
        <ele>43</ele>
        <time>2025-10-17T10:57:09Z</time>
      </trkpt>
      <trkpt lat="50.44833" lon="3.06265">
        <ele>42</ele>
        <time>2025-10-17T10:57:12Z</time>
      </trkpt>
      <trkpt lat="50.44829" lon="3.0624">
        <ele>40</ele>
        <time>2025-10-17T10:57:16Z</time>
      </trkpt>
      <trkpt lat="50.44823" lon="3.06224">
        <ele>40</ele>
        <time>2025-10-17T10:57:18Z</time>
      </trkpt>
      <trkpt lat="50.44827" lon="3.06209">
        <ele>39</ele>
        <time>2025-10-17T10:57:21Z</time>
      </trkpt>
      <trkpt lat="50.44837" lon="3.06189">
        <ele>39</ele>
        <time>2025-10-17T10:57:25Z</time>
      </trkpt>
      <trkpt lat="50.44841" lon="3.06162">
        <ele>38</ele>
        <time>2025-10-17T10:57:29Z</time>
      </trkpt>
      <trkpt lat="50.44839" lon="3.06136">
        <ele>38</ele>
        <time>2025-10-17T10:57:33Z</time>
      </trkpt>
      <trkpt lat="50.44853" lon="3.06147">
        <ele>38</ele>
        <time>2025-10-17T10:57:36Z</time>
      </trkpt>
      <trkpt lat="50.44861" lon="3.06145">
        <ele>38</ele>
        <time>2025-10-17T10:57:38Z</time>
      </trkpt>
      <trkpt lat="50.44868" lon="3.06148">
        <ele>38</ele>
        <time>2025-10-17T10:57:40Z</time>
      </trkpt>
      <trkpt lat="50.44873" lon="3.06156">
        <ele>38</ele>
        <time>2025-10-17T10:57:42Z</time>
      </trkpt>
      <trkpt lat="50.44883" lon="3.06157">
        <ele>38</ele>
        <time>2025-10-17T10:57:44Z</time>
      </trkpt>
      <trkpt lat="50.44887" lon="3.06153">
        <ele>38</ele>
        <time>2025-10-17T10:57:45Z</time>
      </trkpt>
      <trkpt lat="50.4489" lon="3.06141">
        <ele>38</ele>
        <time>2025-10-17T10:57:47Z</time>
      </trkpt>
      <trkpt lat="50.44887" lon="3.06091">
        <ele>39</ele>
        <time>2025-10-17T10:57:54Z</time>
      </trkpt>
      <trkpt lat="50.44877" lon="3.06079">
        <ele>39</ele>
        <time>2025-10-17T10:57:57Z</time>
      </trkpt>
      <trkpt lat="50.44862" lon="3.06075">
        <ele>38</ele>
        <time>2025-10-17T10:58:01Z</time>
      </trkpt>
      <trkpt lat="50.44809" lon="3.06021">
        <ele>37</ele>
        <time>2025-10-17T10:58:16Z</time>
      </trkpt>
      <trkpt lat="50.44787" lon="3.05993">
        <ele>36</ele>
        <time>2025-10-17T10:58:22Z</time>
      </trkpt>
      <trkpt lat="50.44774" lon="3.05997">
        <ele>35</ele>
        <time>2025-10-17T10:58:25Z</time>
      </trkpt>
      <trkpt lat="50.44777" lon="3.05975">
        <ele>35</ele>
        <time>2025-10-17T10:58:29Z</time>
      </trkpt>
      <trkpt lat="50.448" lon="3.05906">
        <ele>35</ele>
        <time>2025-10-17T10:58:40Z</time>
      </trkpt>
      <trkpt lat="50.4504" lon="3.05652">
        <ele>39</ele>
        <time>2025-10-17T10:59:48Z</time>
      </trkpt>
      <trkpt lat="50.45181" lon="3.05529">
        <ele>41</ele>
        <time>2025-10-17T11:00:25Z</time>
      </trkpt>
      <trkpt lat="50.45223" lon="3.05602">
        <ele>45</ele>
        <time>2025-10-17T11:00:40Z</time>
      </trkpt>
      <trkpt lat="50.45635" lon="3.0669">
        <ele>59</ele>
        <time>2025-10-17T11:03:48Z</time>
      </trkpt>
      <trkpt lat="50.45636" lon="3.06712">
        <ele>60</ele>
        <time>2025-10-17T11:03:52Z</time>
      </trkpt>
      <trkpt lat="50.45572" lon="3.06771">
        <ele>61</ele>
        <time>2025-10-17T11:04:09Z</time>
      </trkpt>
      <trkpt lat="50.45511" lon="3.06823">
        <ele>67</ele>
        <time>2025-10-17T11:04:25Z</time>
      </trkpt>
      <trkpt lat="50.45493" lon="3.06848">
        <ele>68</ele>
        <time>2025-10-17T11:04:31Z</time>
      </trkpt>
      <trkpt lat="50.45489" lon="3.06859">
        <ele>68</ele>
        <time>2025-10-17T11:04:33Z</time>
      </trkpt>
      <trkpt lat="50.45492" lon="3.06868">
        <ele>68</ele>
        <time>2025-10-17T11:04:34Z</time>
      </trkpt>
      <trkpt lat="50.45525" lon="3.06891">
        <ele>66</ele>
        <time>2025-10-17T11:04:43Z</time>
      </trkpt>
      <trkpt lat="50.45553" lon="3.06907">
        <ele>64</ele>
        <time>2025-10-17T11:04:50Z</time>
      </trkpt>
      <trkpt lat="50.45565" lon="3.06911">
        <ele>64</ele>
        <time>2025-10-17T11:04:52Z</time>
      </trkpt>
      <trkpt lat="50.45591" lon="3.06934">
        <ele>63</ele>
        <time>2025-10-17T11:04:59Z</time>
      </trkpt>
      <trkpt lat="50.45611" lon="3.06948">
        <ele>63</ele>
        <time>2025-10-17T11:05:04Z</time>
      </trkpt>
      <trkpt lat="50.45628" lon="3.07032">
        <ele>63</ele>
        <time>2025-10-17T11:05:18Z</time>
      </trkpt>
      <trkpt lat="50.45635" lon="3.07053">
        <ele>64</ele>
        <time>2025-10-17T11:05:21Z</time>
      </trkpt>
      <trkpt lat="50.45633" lon="3.0707">
        <ele>64</ele>
        <time>2025-10-17T11:05:24Z</time>
      </trkpt>
      <trkpt lat="50.45626" lon="3.07076">
        <ele>63</ele>
        <time>2025-10-17T11:05:26Z</time>
      </trkpt>
      <trkpt lat="50.45611" lon="3.07081">
        <ele>63</ele>
        <time>2025-10-17T11:05:29Z</time>
      </trkpt>
      <trkpt lat="50.45575" lon="3.07099">
        <ele>63</ele>
        <time>2025-10-17T11:05:38Z</time>
      </trkpt>
      <trkpt lat="50.45508" lon="3.07142">
        <ele>65</ele>
        <time>2025-10-17T11:05:55Z</time>
      </trkpt>
      <trkpt lat="50.45477" lon="3.0717">
        <ele>66</ele>
        <time>2025-10-17T11:06:03Z</time>
      </trkpt>
      <trkpt lat="50.45476" lon="3.07179">
        <ele>67</ele>
        <time>2025-10-17T11:06:05Z</time>
      </trkpt>
      <trkpt lat="50.45518" lon="3.07283">
        <ele>67</ele>
        <time>2025-10-17T11:06:23Z</time>
      </trkpt>
      <trkpt lat="50.45533" lon="3.07314">
        <ele>68</ele>
        <time>2025-10-17T11:06:29Z</time>
      </trkpt>
      <trkpt lat="50.45595" lon="3.07546">
        <ele>68</ele>
        <time>2025-10-17T11:07:06Z</time>
      </trkpt>
      <trkpt lat="50.45627" lon="3.07554">
        <ele>68</ele>
        <time>2025-10-17T11:07:14Z</time>
      </trkpt>
      <trkpt lat="50.45636" lon="3.07551">
        <ele>67</ele>
        <time>2025-10-17T11:07:16Z</time>
      </trkpt>
      <trkpt lat="50.45668" lon="3.07705">
        <ele>68</ele>
        <time>2025-10-17T11:07:40Z</time>
      </trkpt>
      <trkpt lat="50.45666" lon="3.07749">
        <ele>69</ele>
        <time>2025-10-17T11:07:46Z</time>
      </trkpt>
      <trkpt lat="50.45653" lon="3.0776">
        <ele>69</ele>
        <time>2025-10-17T11:07:50Z</time>
      </trkpt>
      <trkpt lat="50.45613" lon="3.07783">
        <ele>69</ele>
        <time>2025-10-17T11:08:00Z</time>
      </trkpt>
      <trkpt lat="50.45619" lon="3.07796">
        <ele>69</ele>
        <time>2025-10-17T11:08:02Z</time>
      </trkpt>
      <trkpt lat="50.4569" lon="3.07873">
        <ele>69</ele>
        <time>2025-10-17T11:08:22Z</time>
      </trkpt>
      <trkpt lat="50.45752" lon="3.07962">
        <ele>68</ele>
        <time>2025-10-17T11:08:42Z</time>
      </trkpt>
      <trkpt lat="50.45817" lon="3.08041">
        <ele>68</ele>
        <time>2025-10-17T11:09:01Z</time>
      </trkpt>
      <trkpt lat="50.45881" lon="3.08089">
        <ele>67</ele>
        <time>2025-10-17T11:09:18Z</time>
      </trkpt>
      <trkpt lat="50.45883" lon="3.08106">
        <ele>67</ele>
        <time>2025-10-17T11:09:20Z</time>
      </trkpt>
      <trkpt lat="50.4589" lon="3.08126">
        <ele>67</ele>
        <time>2025-10-17T11:09:24Z</time>
      </trkpt>
      <trkpt lat="50.45899" lon="3.08133">
        <ele>67</ele>
        <time>2025-10-17T11:09:26Z</time>
      </trkpt>
      <trkpt lat="50.45908" lon="3.08135">
        <ele>67</ele>
        <time>2025-10-17T11:09:28Z</time>
      </trkpt>
      <trkpt lat="50.45997" lon="3.08135">
        <ele>64</ele>
        <time>2025-10-17T11:09:49Z</time>
      </trkpt>
      <trkpt lat="50.46004" lon="3.08139">
        <ele>64</ele>
        <time>2025-10-17T11:09:51Z</time>
      </trkpt>
      <trkpt lat="50.46045" lon="3.08232">
        <ele>61</ele>
        <time>2025-10-17T11:10:08Z</time>
      </trkpt>
      <trkpt lat="50.46066" lon="3.08288">
        <ele>61</ele>
        <time>2025-10-17T11:10:17Z</time>
      </trkpt>
      <trkpt lat="50.46101" lon="3.08346">
        <ele>60</ele>
        <time>2025-10-17T11:10:29Z</time>
      </trkpt>
      <trkpt lat="50.4616" lon="3.0843">
        <ele>57</ele>
        <time>2025-10-17T11:10:48Z</time>
      </trkpt>
      <trkpt lat="50.4623" lon="3.08549">
        <ele>57</ele>
        <time>2025-10-17T11:11:12Z</time>
      </trkpt>
      <trkpt lat="50.4629" lon="3.0861">
        <ele>57</ele>
        <time>2025-10-17T11:11:28Z</time>
      </trkpt>
      <trkpt lat="50.46345" lon="3.08674">
        <ele>57</ele>
        <time>2025-10-17T11:11:44Z</time>
      </trkpt>
      <trkpt lat="50.46417" lon="3.08727">
        <ele>57</ele>
        <time>2025-10-17T11:12:03Z</time>
      </trkpt>
      <trkpt lat="50.46438" lon="3.08759">
        <ele>56</ele>
        <time>2025-10-17T11:12:10Z</time>
      </trkpt>
      <trkpt lat="50.46498" lon="3.08818">
        <ele>54</ele>
        <time>2025-10-17T11:12:26Z</time>
      </trkpt>
      <trkpt lat="50.46567" lon="3.08913">
        <ele>52</ele>
        <time>2025-10-17T11:12:48Z</time>
      </trkpt>
      <trkpt lat="50.46616" lon="3.08992">
        <ele>51</ele>
        <time>2025-10-17T11:13:04Z</time>
      </trkpt>
      <trkpt lat="50.46648" lon="3.09069">
        <ele>50</ele>
        <time>2025-10-17T11:13:18Z</time>
      </trkpt>
      <trkpt lat="50.467" lon="3.09138">
        <ele>49</ele>
        <time>2025-10-17T11:13:34Z</time>
      </trkpt>
      <trkpt lat="50.46749" lon="3.09188">
        <ele>48</ele>
        <time>2025-10-17T11:13:47Z</time>
      </trkpt>
      <trkpt lat="50.46768" lon="3.09196">
        <ele>48</ele>
        <time>2025-10-17T11:13:52Z</time>
      </trkpt>
      <trkpt lat="50.46804" lon="3.09192">
        <ele>47</ele>
        <time>2025-10-17T11:14:00Z</time>
      </trkpt>
      <trkpt lat="50.46895" lon="3.09167">
        <ele>46</ele>
        <time>2025-10-17T11:14:22Z</time>
      </trkpt>
      <trkpt lat="50.46939" lon="3.09162">
        <ele>45</ele>
        <time>2025-10-17T11:14:32Z</time>
      </trkpt>
      <trkpt lat="50.46959" lon="3.09164">
        <ele>46</ele>
        <time>2025-10-17T11:14:37Z</time>
      </trkpt>
      <trkpt lat="50.46975" lon="3.09195">
        <ele>46</ele>
        <time>2025-10-17T11:14:43Z</time>
      </trkpt>
      <trkpt lat="50.46982" lon="3.09217">
        <ele>45</ele>
        <time>2025-10-17T11:14:47Z</time>
      </trkpt>
      <trkpt lat="50.46985" lon="3.0924">
        <ele>45</ele>
        <time>2025-10-17T11:14:50Z</time>
      </trkpt>
      <trkpt lat="50.46987" lon="3.093">
        <ele>45</ele>
        <time>2025-10-17T11:14:59Z</time>
      </trkpt>
      <trkpt lat="50.46963" lon="3.09431">
        <ele>44</ele>
        <time>2025-10-17T11:15:19Z</time>
      </trkpt>
      <trkpt lat="50.46963" lon="3.09512">
        <ele>45</ele>
        <time>2025-10-17T11:15:31Z</time>
      </trkpt>
      <trkpt lat="50.46958" lon="3.09598">
        <ele>45</ele>
        <time>2025-10-17T11:15:44Z</time>
      </trkpt>
      <trkpt lat="50.46945" lon="3.0967">
        <ele>45</ele>
        <time>2025-10-17T11:15:55Z</time>
      </trkpt>
      <trkpt lat="50.46935" lon="3.09706">
        <ele>46</ele>
        <time>2025-10-17T11:16:01Z</time>
      </trkpt>
      <trkpt lat="50.46944" lon="3.09711">
        <ele>46</ele>
        <time>2025-10-17T11:16:03Z</time>
      </trkpt>
      <trkpt lat="50.4698" lon="3.09717">
        <ele>47</ele>
        <time>2025-10-17T11:16:12Z</time>
      </trkpt>
      <trkpt lat="50.47014" lon="3.09734">
        <ele>47</ele>
        <time>2025-10-17T11:16:20Z</time>
      </trkpt>
      <trkpt lat="50.47096" lon="3.09789">
        <ele>49</ele>
        <time>2025-10-17T11:16:41Z</time>
      </trkpt>
      <trkpt lat="50.47205" lon="3.09888">
        <ele>52</ele>
        <time>2025-10-17T11:17:10Z</time>
      </trkpt>
      <trkpt lat="50.47294" lon="3.09957">
        <ele>56</ele>
        <time>2025-10-17T11:17:33Z</time>
      </trkpt>
      <trkpt lat="50.47457" lon="3.09961">
        <ele>64</ele>
        <time>2025-10-17T11:18:12Z</time>
      </trkpt>
      <trkpt lat="50.47515" lon="3.09969">
        <ele>67</ele>
        <time>2025-10-17T11:18:25Z</time>
      </trkpt>
      <trkpt lat="50.47611" lon="3.09995">
        <ele>73</ele>
        <time>2025-10-17T11:18:48Z</time>
      </trkpt>
      <trkpt lat="50.47738" lon="3.10024">
        <ele>80</ele>
        <time>2025-10-17T11:19:18Z</time>
      </trkpt>
      <trkpt lat="50.47744" lon="3.10038">
        <ele>81</ele>
        <time>2025-10-17T11:19:20Z</time>
      </trkpt>
      <trkpt lat="50.47821" lon="3.10126">
        <ele>91</ele>
        <time>2025-10-17T11:19:43Z</time>
      </trkpt>
      <trkpt lat="50.47829" lon="3.10128">
        <ele>92</ele>
        <time>2025-10-17T11:19:45Z</time>
      </trkpt>
      <trkpt lat="50.47834" lon="3.10169">
        <ele>93</ele>
        <time>2025-10-17T11:19:51Z</time>
      </trkpt>
      <trkpt lat="50.47837" lon="3.10183">
        <ele>92</ele>
        <time>2025-10-17T11:19:53Z</time>
      </trkpt>
      <trkpt lat="50.4784" lon="3.10187">
        <ele>92</ele>
        <time>2025-10-17T11:19:54Z</time>
      </trkpt>
      <trkpt lat="50.47892" lon="3.10179">
        <ele>93</ele>
        <time>2025-10-17T11:20:06Z</time>
      </trkpt>
      <trkpt lat="50.47912" lon="3.10169">
        <ele>93</ele>
        <time>2025-10-17T11:20:11Z</time>
      </trkpt>
      <trkpt lat="50.47943" lon="3.10149">
        <ele>92</ele>
        <time>2025-10-17T11:20:19Z</time>
      </trkpt>
      <trkpt lat="50.47947" lon="3.10143">
        <ele>91</ele>
        <time>2025-10-17T11:20:20Z</time>
      </trkpt>
      <trkpt lat="50.47978" lon="3.1012">
        <ele>90</ele>
        <time>2025-10-17T11:20:28Z</time>
      </trkpt>
      <trkpt lat="50.47983" lon="3.10114">
        <ele>90</ele>
        <time>2025-10-17T11:20:30Z</time>
      </trkpt>
      <trkpt lat="50.47993" lon="3.10095">
        <ele>90</ele>
        <time>2025-10-17T11:20:33Z</time>
      </trkpt>
      <trkpt lat="50.47999" lon="3.10066">
        <ele>90</ele>
        <time>2025-10-17T11:20:38Z</time>
      </trkpt>
      <trkpt lat="50.48014" lon="3.10068">
        <ele>90</ele>
        <time>2025-10-17T11:20:41Z</time>
      </trkpt>
      <trkpt lat="50.48036" lon="3.10051">
        <ele>89</ele>
        <time>2025-10-17T11:20:47Z</time>
      </trkpt>
      <trkpt lat="50.48053" lon="3.10042">
        <ele>88</ele>
        <time>2025-10-17T11:20:51Z</time>
      </trkpt>
      <trkpt lat="50.48106" lon="3.1003">
        <ele>87</ele>
        <time>2025-10-17T11:21:04Z</time>
      </trkpt>
      <trkpt lat="50.48166" lon="3.10006">
        <ele>85</ele>
        <time>2025-10-17T11:21:18Z</time>
      </trkpt>
      <trkpt lat="50.48255" lon="3.09959">
        <ele>89</ele>
        <time>2025-10-17T11:21:40Z</time>
      </trkpt>
      <trkpt lat="50.48323" lon="3.09929">
        <ele>92</ele>
        <time>2025-10-17T11:21:57Z</time>
      </trkpt>
      <trkpt lat="50.48382" lon="3.0991">
        <ele>90</ele>
        <time>2025-10-17T11:22:11Z</time>
      </trkpt>
      <trkpt lat="50.48418" lon="3.09894">
        <ele>89</ele>
        <time>2025-10-17T11:22:19Z</time>
      </trkpt>
      <trkpt lat="50.48473" lon="3.09886">
        <ele>87</ele>
        <time>2025-10-17T11:22:32Z</time>
      </trkpt>
      <trkpt lat="50.4858" lon="3.09881">
        <ele>86</ele>
        <time>2025-10-17T11:22:57Z</time>
      </trkpt>
      <trkpt lat="50.48676" lon="3.09889">
        <ele>89</ele>
        <time>2025-10-17T11:23:20Z</time>
      </trkpt>
      <trkpt lat="50.48789" lon="3.09905">
        <ele>91</ele>
        <time>2025-10-17T11:23:46Z</time>
      </trkpt>
      <trkpt lat="50.48796" lon="3.09904">
        <ele>91</ele>
        <time>2025-10-17T11:23:48Z</time>
      </trkpt>
      <trkpt lat="50.48832" lon="3.09934">
        <ele>91</ele>
        <time>2025-10-17T11:23:57Z</time>
      </trkpt>
      <trkpt lat="50.48868" lon="3.09986">
        <ele>88</ele>
        <time>2025-10-17T11:24:09Z</time>
      </trkpt>
      <trkpt lat="50.48885" lon="3.10004">
        <ele>87</ele>
        <time>2025-10-17T11:24:14Z</time>
      </trkpt>
      <trkpt lat="50.48894" lon="3.1001">
        <ele>87</ele>
        <time>2025-10-17T11:24:16Z</time>
      </trkpt>
      <trkpt lat="50.48909" lon="3.10015">
        <ele>87</ele>
        <time>2025-10-17T11:24:19Z</time>
      </trkpt>
      <trkpt lat="50.48926" lon="3.10045">
        <ele>85</ele>
        <time>2025-10-17T11:24:25Z</time>
      </trkpt>
      <trkpt lat="50.48942" lon="3.10045">
        <ele>84</ele>
        <time>2025-10-17T11:24:29Z</time>
      </trkpt>
      <trkpt lat="50.48965" lon="3.10028">
        <ele>83</ele>
        <time>2025-10-17T11:24:35Z</time>
      </trkpt>
      <trkpt lat="50.49107" lon="3.10013">
        <ele>69</ele>
        <time>2025-10-17T11:25:08Z</time>
      </trkpt>
      <trkpt lat="50.4915" lon="3.09975">
        <ele>66</ele>
        <time>2025-10-17T11:25:20Z</time>
      </trkpt>
      <trkpt lat="50.49167" lon="3.09975">
        <ele>64</ele>
        <time>2025-10-17T11:25:24Z</time>
      </trkpt>
      <trkpt lat="50.49243" lon="3.1">
        <ele>59</ele>
        <time>2025-10-17T11:25:42Z</time>
      </trkpt>
      <trkpt lat="50.49251" lon="3.09989">
        <ele>59</ele>
        <time>2025-10-17T11:25:44Z</time>
      </trkpt>
      <trkpt lat="50.49286" lon="3.0997">
        <ele>57</ele>
        <time>2025-10-17T11:25:53Z</time>
      </trkpt>
      <trkpt lat="50.49316" lon="3.09959">
        <ele>55</ele>
        <time>2025-10-17T11:26:00Z</time>
      </trkpt>
      <trkpt lat="50.49322" lon="3.09954">
        <ele>55</ele>
        <time>2025-10-17T11:26:02Z</time>
      </trkpt>
      <trkpt lat="50.49448" lon="3.09938">
        <ele>50</ele>
        <time>2025-10-17T11:26:31Z</time>
      </trkpt>
      <trkpt lat="50.49491" lon="3.09926">
        <ele>49</ele>
        <time>2025-10-17T11:26:42Z</time>
      </trkpt>
      <trkpt lat="50.49533" lon="3.09911">
        <ele>49</ele>
        <time>2025-10-17T11:26:52Z</time>
      </trkpt>
      <trkpt lat="50.49571" lon="3.09886">
        <ele>50</ele>
        <time>2025-10-17T11:27:01Z</time>
      </trkpt>
      <trkpt lat="50.49716" lon="3.09805">
        <ele>48</ele>
        <time>2025-10-17T11:27:37Z</time>
      </trkpt>
      <trkpt lat="50.49725" lon="3.09802">
        <ele>48</ele>
        <time>2025-10-17T11:27:39Z</time>
      </trkpt>
      <trkpt lat="50.4976" lon="3.09813">
        <ele>48</ele>
        <time>2025-10-17T11:27:48Z</time>
      </trkpt>
      <trkpt lat="50.49774" lon="3.09813">
        <ele>48</ele>
        <time>2025-10-17T11:27:51Z</time>
      </trkpt>
      <trkpt lat="50.49921" lon="3.09758">
        <ele>49</ele>
        <time>2025-10-17T11:28:26Z</time>
      </trkpt>
      <trkpt lat="50.49921" lon="3.09747">
        <ele>49</ele>
        <time>2025-10-17T11:28:28Z</time>
      </trkpt>
      <trkpt lat="50.49703" lon="3.09306">
        <ele>51</ele>
        <time>2025-10-17T11:29:51Z</time>
      </trkpt>
      <trkpt lat="50.49789" lon="3.09135">
        <ele>46</ele>
        <time>2025-10-17T11:30:23Z</time>
      </trkpt>
      <trkpt lat="50.49828" lon="3.09073">
        <ele>45</ele>
        <time>2025-10-17T11:30:36Z</time>
      </trkpt>
      <trkpt lat="50.50052" lon="3.08792">
        <ele>43</ele>
        <time>2025-10-17T11:31:43Z</time>
      </trkpt>
      <trkpt lat="50.50176" lon="3.08657">
        <ele>43</ele>
        <time>2025-10-17T11:32:18Z</time>
      </trkpt>
      <trkpt lat="50.50204" lon="3.08623">
        <ele>44</ele>
        <time>2025-10-17T11:32:27Z</time>
      </trkpt>
      <trkpt lat="50.50214" lon="3.08607">
        <ele>44</ele>
        <time>2025-10-17T11:32:30Z</time>
      </trkpt>
      <trkpt lat="50.50185" lon="3.08566">
        <ele>43</ele>
        <time>2025-10-17T11:32:39Z</time>
      </trkpt>
      <trkpt lat="50.50125" lon="3.08467">
        <ele>42</ele>
        <time>2025-10-17T11:32:59Z</time>
      </trkpt>
      <trkpt lat="50.50113" lon="3.08443">
        <ele>42</ele>
        <time>2025-10-17T11:33:04Z</time>
      </trkpt>
      <trkpt lat="50.50079" lon="3.08354">
        <ele>41</ele>
        <time>2025-10-17T11:33:19Z</time>
      </trkpt>
      <trkpt lat="50.5006" lon="3.08324">
        <ele>41</ele>
        <time>2025-10-17T11:33:26Z</time>
      </trkpt>
      <trkpt lat="50.50027" lon="3.08291">
        <ele>42</ele>
        <time>2025-10-17T11:33:35Z</time>
      </trkpt>
      <trkpt lat="50.50004" lon="3.08262">
        <ele>42</ele>
        <time>2025-10-17T11:33:42Z</time>
      </trkpt>
      <trkpt lat="50.49969" lon="3.08239">
        <ele>42</ele>
        <time>2025-10-17T11:33:50Z</time>
      </trkpt>
      <trkpt lat="50.49913" lon="3.08185">
        <ele>42</ele>
        <time>2025-10-17T11:34:06Z</time>
      </trkpt>
      <trkpt lat="50.49854" lon="3.08139">
        <ele>42</ele>
        <time>2025-10-17T11:34:21Z</time>
      </trkpt>
      <trkpt lat="50.49784" lon="3.08064">
        <ele>42</ele>
        <time>2025-10-17T11:34:41Z</time>
      </trkpt>
      <trkpt lat="50.49778" lon="3.08054">
        <ele>42</ele>
        <time>2025-10-17T11:34:43Z</time>
      </trkpt>
      <trkpt lat="50.4976" lon="3.08005">
        <ele>42</ele>
        <time>2025-10-17T11:34:51Z</time>
      </trkpt>
      <trkpt lat="50.49695" lon="3.07955">
        <ele>43</ele>
        <time>2025-10-17T11:35:08Z</time>
      </trkpt>
      <trkpt lat="50.49716" lon="3.07851">
        <ele>41</ele>
        <time>2025-10-17T11:35:24Z</time>
      </trkpt>
      <trkpt lat="50.49724" lon="3.07826">
        <ele>41</ele>
        <time>2025-10-17T11:35:29Z</time>
      </trkpt>
      <trkpt lat="50.49736" lon="3.078">
        <ele>40</ele>
        <time>2025-10-17T11:35:33Z</time>
      </trkpt>
      <trkpt lat="50.49792" lon="3.07703">
        <ele>41</ele>
        <time>2025-10-17T11:35:53Z</time>
      </trkpt>
      <trkpt lat="50.49923" lon="3.07463">
        <ele>41</ele>
        <time>2025-10-17T11:36:40Z</time>
      </trkpt>
      <trkpt lat="50.4986" lon="3.07384">
        <ele>43</ele>
        <time>2025-10-17T11:36:59Z</time>
      </trkpt>
      <trkpt lat="50.49893" lon="3.07335">
        <ele>46</ele>
        <time>2025-10-17T11:37:09Z</time>
      </trkpt>
      <trkpt lat="50.49916" lon="3.07252">
        <ele>48</ele>
        <time>2025-10-17T11:37:23Z</time>
      </trkpt>
      <trkpt lat="50.49953" lon="3.07199">
        <ele>47</ele>
        <time>2025-10-17T11:37:34Z</time>
      </trkpt>
      <trkpt lat="50.50075" lon="3.07077">
        <ele>45</ele>
        <time>2025-10-17T11:38:08Z</time>
      </trkpt>
      <trkpt lat="50.50073" lon="3.07048">
        <ele>48</ele>
        <time>2025-10-17T11:38:12Z</time>
      </trkpt>
      <trkpt lat="50.50088" lon="3.07025">
        <ele>50</ele>
        <time>2025-10-17T11:38:17Z</time>
      </trkpt>
      <trkpt lat="50.50157" lon="3.06985">
        <ele>52</ele>
        <time>2025-10-17T11:38:35Z</time>
      </trkpt>
      <trkpt lat="50.50178" lon="3.06947">
        <ele>54</ele>
        <time>2025-10-17T11:38:42Z</time>
      </trkpt>
      <trkpt lat="50.50185" lon="3.06884">
        <ele>56</ele>
        <time>2025-10-17T11:38:52Z</time>
      </trkpt>
      <trkpt lat="50.50191" lon="3.06877">
        <ele>56</ele>
        <time>2025-10-17T11:38:53Z</time>
      </trkpt>
      <trkpt lat="50.50205" lon="3.06832">
        <ele>57</ele>
        <time>2025-10-17T11:39:01Z</time>
      </trkpt>
      <trkpt lat="50.50219" lon="3.06808">
        <ele>56</ele>
        <time>2025-10-17T11:39:06Z</time>
      </trkpt>
      <trkpt lat="50.50228" lon="3.06759">
        <ele>53</ele>
        <time>2025-10-17T11:39:13Z</time>
      </trkpt>
      <trkpt lat="50.50229" lon="3.06681">
        <ele>50</ele>
        <time>2025-10-17T11:39:25Z</time>
      </trkpt>
      <trkpt lat="50.50204" lon="3.0657">
        <ele>52</ele>
        <time>2025-10-17T11:39:42Z</time>
      </trkpt>
      <trkpt lat="50.50208" lon="3.06533">
        <ele>52</ele>
        <time>2025-10-17T11:39:48Z</time>
      </trkpt>
      <trkpt lat="50.502" lon="3.06494">
        <ele>52</ele>
        <time>2025-10-17T11:39:54Z</time>
      </trkpt>
      <trkpt lat="50.50199" lon="3.06456">
        <ele>53</ele>
        <time>2025-10-17T11:40:00Z</time>
      </trkpt>
      <trkpt lat="50.50204" lon="3.06438">
        <ele>53</ele>
        <time>2025-10-17T11:40:02Z</time>
      </trkpt>
      <trkpt lat="50.50214" lon="3.06422">
        <ele>53</ele>
        <time>2025-10-17T11:40:06Z</time>
      </trkpt>
      <trkpt lat="50.50245" lon="3.06352">
        <ele>56</ele>
        <time>2025-10-17T11:40:18Z</time>
      </trkpt>
      <trkpt lat="50.50271" lon="3.0634">
        <ele>57</ele>
        <time>2025-10-17T11:40:25Z</time>
      </trkpt>
      <trkpt lat="50.50281" lon="3.06345">
        <ele>56</ele>
        <time>2025-10-17T11:40:27Z</time>
      </trkpt>
      <trkpt lat="50.50303" lon="3.06346">
        <ele>56</ele>
        <time>2025-10-17T11:40:32Z</time>
      </trkpt>
      <trkpt lat="50.50319" lon="3.06353">
        <ele>56</ele>
        <time>2025-10-17T11:40:36Z</time>
      </trkpt>
      <trkpt lat="50.50334" lon="3.06343">
        <ele>57</ele>
        <time>2025-10-17T11:40:40Z</time>
      </trkpt>
      <trkpt lat="50.50359" lon="3.06347">
        <ele>55</ele>
        <time>2025-10-17T11:40:46Z</time>
      </trkpt>
      <trkpt lat="50.50365" lon="3.06343">
        <ele>56</ele>
        <time>2025-10-17T11:40:47Z</time>
      </trkpt>
      <trkpt lat="50.504" lon="3.06291">
        <ele>58</ele>
        <time>2025-10-17T11:40:59Z</time>
      </trkpt>
      <trkpt lat="50.50399" lon="3.06277">
        <ele>59</ele>
        <time>2025-10-17T11:41:01Z</time>
      </trkpt>
      <trkpt lat="50.50405" lon="3.06273">
        <ele>60</ele>
        <time>2025-10-17T11:41:02Z</time>
      </trkpt>
      <trkpt lat="50.50423" lon="3.06285">
        <ele>59</ele>
        <time>2025-10-17T11:41:07Z</time>
      </trkpt>
      <trkpt lat="50.50438" lon="3.06288">
        <ele>59</ele>
        <time>2025-10-17T11:41:10Z</time>
      </trkpt>
      <trkpt lat="50.50461" lon="3.06326">
        <ele>58</ele>
        <time>2025-10-17T11:41:18Z</time>
      </trkpt>
      <trkpt lat="50.50465" lon="3.06349">
        <ele>57</ele>
        <time>2025-10-17T11:41:22Z</time>
      </trkpt>
      <trkpt lat="50.50487" lon="3.06398">
        <ele>56</ele>
        <time>2025-10-17T11:41:31Z</time>
      </trkpt>
      <trkpt lat="50.50502" lon="3.06413">
        <ele>56</ele>
        <time>2025-10-17T11:41:35Z</time>
      </trkpt>
      <trkpt lat="50.50559" lon="3.06439">
        <ele>58</ele>
        <time>2025-10-17T11:41:49Z</time>
      </trkpt>
      <trkpt lat="50.50583" lon="3.0642">
        <ele>62</ele>
        <time>2025-10-17T11:41:55Z</time>
      </trkpt>
      <trkpt lat="50.50599" lon="3.06402">
        <ele>62</ele>
        <time>2025-10-17T11:42:00Z</time>
      </trkpt>
      <trkpt lat="50.5061" lon="3.06412">
        <ele>61</ele>
        <time>2025-10-17T11:42:02Z</time>
      </trkpt>
      <trkpt lat="50.50639" lon="3.0642">
        <ele>58</ele>
        <time>2025-10-17T11:42:09Z</time>
      </trkpt>
      <trkpt lat="50.50655" lon="3.06389">
        <ele>59</ele>
        <time>2025-10-17T11:42:15Z</time>
      </trkpt>
      <trkpt lat="50.50696" lon="3.06335">
        <ele>59</ele>
        <time>2025-10-17T11:42:28Z</time>
      </trkpt>
      <trkpt lat="50.50702" lon="3.06295">
        <ele>60</ele>
        <time>2025-10-17T11:42:34Z</time>
      </trkpt>
      <trkpt lat="50.50697" lon="3.06274">
        <ele>61</ele>
        <time>2025-10-17T11:42:37Z</time>
      </trkpt>
      <trkpt lat="50.50697" lon="3.0624">
        <ele>62</ele>
        <time>2025-10-17T11:42:42Z</time>
      </trkpt>
      <trkpt lat="50.50703" lon="3.06227">
        <ele>62</ele>
        <time>2025-10-17T11:42:45Z</time>
      </trkpt>
      <trkpt lat="50.50734" lon="3.06179">
        <ele>63</ele>
        <time>2025-10-17T11:42:55Z</time>
      </trkpt>
      <trkpt lat="50.50757" lon="3.0618">
        <ele>62</ele>
        <time>2025-10-17T11:43:00Z</time>
      </trkpt>
      <trkpt lat="50.50765" lon="3.06166">
        <ele>62</ele>
        <time>2025-10-17T11:43:03Z</time>
      </trkpt>
      <trkpt lat="50.50811" lon="3.06121">
        <ele>62</ele>
        <time>2025-10-17T11:43:16Z</time>
      </trkpt>
      <trkpt lat="50.50819" lon="3.06085">
        <ele>63</ele>
        <time>2025-10-17T11:43:21Z</time>
      </trkpt>
      <trkpt lat="50.50839" lon="3.05922">
        <ele>64</ele>
        <time>2025-10-17T11:43:46Z</time>
      </trkpt>
      <trkpt lat="50.50914" lon="3.05802">
        <ele>62</ele>
        <time>2025-10-17T11:44:11Z</time>
      </trkpt>
      <trkpt lat="50.50935" lon="3.05806">
        <ele>61</ele>
        <time>2025-10-17T11:44:16Z</time>
      </trkpt>
      <trkpt lat="50.50962" lon="3.05776">
        <ele>59</ele>
        <time>2025-10-17T11:44:24Z</time>
      </trkpt>
      <trkpt lat="50.51002" lon="3.05783">
        <ele>57</ele>
        <time>2025-10-17T11:44:33Z</time>
      </trkpt>
      <trkpt lat="50.51052" lon="3.0568">
        <ele>57</ele>
        <time>2025-10-17T11:44:52Z</time>
      </trkpt>
      <trkpt lat="50.51085" lon="3.05561">
        <ele>53</ele>
        <time>2025-10-17T11:45:12Z</time>
      </trkpt>
      <trkpt lat="50.51175" lon="3.05346">
        <ele>58</ele>
        <time>2025-10-17T11:45:50Z</time>
      </trkpt>
      <trkpt lat="50.51185" lon="3.05334">
        <ele>58</ele>
        <time>2025-10-17T11:45:53Z</time>
      </trkpt>
      <trkpt lat="50.51215" lon="3.05336">
        <ele>59</ele>
        <time>2025-10-17T11:46:00Z</time>
      </trkpt>
      <trkpt lat="50.51255" lon="3.05262">
        <ele>62</ele>
        <time>2025-10-17T11:46:14Z</time>
      </trkpt>
      <trkpt lat="50.51367" lon="3.0513">
        <ele>60</ele>
        <time>2025-10-17T11:46:47Z</time>
      </trkpt>
      <trkpt lat="50.51456" lon="3.05121">
        <ele>56</ele>
        <time>2025-10-17T11:47:08Z</time>
      </trkpt>
      <trkpt lat="50.51532" lon="3.05086">
        <ele>55</ele>
        <time>2025-10-17T11:47:26Z</time>
      </trkpt>
      <trkpt lat="50.51557" lon="3.05044">
        <ele>52</ele>
        <time>2025-10-17T11:47:35Z</time>
      </trkpt>
      <trkpt lat="50.51515" lon="3.04948">
        <ele>51</ele>
        <time>2025-10-17T11:47:52Z</time>
      </trkpt>
      <trkpt lat="50.51496" lon="3.04861">
        <ele>49</ele>
        <time>2025-10-17T11:48:06Z</time>
      </trkpt>
      <trkpt lat="50.51534" lon="3.048">
        <ele>48</ele>
        <time>2025-10-17T11:48:18Z</time>
      </trkpt>
      <trkpt lat="50.51657" lon="3.04692">
        <ele>46</ele>
        <time>2025-10-17T11:48:51Z</time>
      </trkpt>
      <trkpt lat="50.5179" lon="3.04599">
        <ele>50</ele>
        <time>2025-10-17T11:49:25Z</time>
      </trkpt>
      <trkpt lat="50.52064" lon="3.0444">
        <ele>42</ele>
        <time>2025-10-17T11:50:33Z</time>
      </trkpt>
      <trkpt lat="50.52088" lon="3.04406">
        <ele>42</ele>
        <time>2025-10-17T11:50:41Z</time>
      </trkpt>
      <trkpt lat="50.52083" lon="3.04378">
        <ele>41</ele>
        <time>2025-10-17T11:50:45Z</time>
      </trkpt>
      <trkpt lat="50.52073" lon="3.04357">
        <ele>41</ele>
        <time>2025-10-17T11:50:49Z</time>
      </trkpt>
      <trkpt lat="50.5203" lon="3.04309">
        <ele>43</ele>
        <time>2025-10-17T11:51:01Z</time>
      </trkpt>
      <trkpt lat="50.51946" lon="3.04317">
        <ele>45</ele>
        <time>2025-10-17T11:51:21Z</time>
      </trkpt>
      <trkpt lat="50.51919" lon="3.04317">
        <ele>45</ele>
        <time>2025-10-17T11:51:27Z</time>
      </trkpt>
      <trkpt lat="50.51724" lon="3.04424">
        <ele>47</ele>
        <time>2025-10-17T11:52:16Z</time>
      </trkpt>
      <trkpt lat="50.51701" lon="3.04384">
        <ele>47</ele>
        <time>2025-10-17T11:52:24Z</time>
      </trkpt>
      <trkpt lat="50.51651" lon="3.04233">
        <ele>47</ele>
        <time>2025-10-17T11:52:49Z</time>
      </trkpt>
      <trkpt lat="50.51635" lon="3.04146">
        <ele>44</ele>
        <time>2025-10-17T11:53:02Z</time>
      </trkpt>
      <trkpt lat="50.5162" lon="3.04143">
        <ele>43</ele>
        <time>2025-10-17T11:53:06Z</time>
      </trkpt>
      <trkpt lat="50.51608" lon="3.04137">
        <ele>43</ele>
        <time>2025-10-17T11:53:09Z</time>
      </trkpt>
      <trkpt lat="50.51574" lon="3.041">
        <ele>39</ele>
        <time>2025-10-17T11:53:19Z</time>
      </trkpt>
      <trkpt lat="50.51565" lon="3.04105">
        <ele>39</ele>
        <time>2025-10-17T11:53:21Z</time>
      </trkpt>
      <trkpt lat="50.51554" lon="3.04123">
        <ele>40</ele>
        <time>2025-10-17T11:53:24Z</time>
      </trkpt>
      <trkpt lat="50.51538" lon="3.04162">
        <ele>42</ele>
        <time>2025-10-17T11:53:31Z</time>
      </trkpt>
      <trkpt lat="50.51542" lon="3.04223">
        <ele>44</ele>
        <time>2025-10-17T11:53:40Z</time>
      </trkpt>
      <trkpt lat="50.5154" lon="3.04243">
        <ele>44</ele>
        <time>2025-10-17T11:53:43Z</time>
      </trkpt>
      <trkpt lat="50.51531" lon="3.04272">
        <ele>44</ele>
        <time>2025-10-17T11:53:48Z</time>
      </trkpt>
      <trkpt lat="50.51513" lon="3.04315">
        <ele>45</ele>
        <time>2025-10-17T11:53:56Z</time>
      </trkpt>
      <trkpt lat="50.51494" lon="3.04334">
        <ele>45</ele>
        <time>2025-10-17T11:54:01Z</time>
      </trkpt>
      <trkpt lat="50.5146" lon="3.04358">
        <ele>46</ele>
        <time>2025-10-17T11:54:10Z</time>
      </trkpt>
      <trkpt lat="50.51405" lon="3.0439">
        <ele>47</ele>
        <time>2025-10-17T11:54:24Z</time>
      </trkpt>
      <trkpt lat="50.51355" lon="3.04411">
        <ele>49</ele>
        <time>2025-10-17T11:54:36Z</time>
      </trkpt>
      <trkpt lat="50.51276" lon="3.04399">
        <ele>48</ele>
        <time>2025-10-17T11:54:54Z</time>
      </trkpt>
      <trkpt lat="50.51231" lon="3.04414">
        <ele>50</ele>
        <time>2025-10-17T11:55:05Z</time>
      </trkpt>
      <trkpt lat="50.51182" lon="3.04411">
        <ele>51</ele>
        <time>2025-10-17T11:55:16Z</time>
      </trkpt>
      <trkpt lat="50.51144" lon="3.04404">
        <ele>51</ele>
        <time>2025-10-17T11:55:25Z</time>
      </trkpt>
      <trkpt lat="50.51142" lon="3.04377">
        <ele>49</ele>
        <time>2025-10-17T11:55:29Z</time>
      </trkpt>
      <trkpt lat="50.51149" lon="3.04349">
        <ele>47</ele>
        <time>2025-10-17T11:55:34Z</time>
      </trkpt>
      <trkpt lat="50.51205" lon="3.04278">
        <ele>43</ele>
        <time>2025-10-17T11:55:51Z</time>
      </trkpt>
      <trkpt lat="50.51264" lon="3.04247">
        <ele>41</ele>
        <time>2025-10-17T11:56:05Z</time>
      </trkpt>
      <trkpt lat="50.51296" lon="3.04189">
        <ele>40</ele>
        <time>2025-10-17T11:56:17Z</time>
      </trkpt>
      <trkpt lat="50.51328" lon="3.04146">
        <ele>38</ele>
        <time>2025-10-17T11:56:26Z</time>
      </trkpt>
      <trkpt lat="50.51377" lon="3.04087">
        <ele>38</ele>
        <time>2025-10-17T11:56:41Z</time>
      </trkpt>
      <trkpt lat="50.51415" lon="3.04022">
        <ele>36</ele>
        <time>2025-10-17T11:56:54Z</time>
      </trkpt>
      <trkpt lat="50.51429" lon="3.04011">
        <ele>36</ele>
        <time>2025-10-17T11:56:58Z</time>
      </trkpt>
      <trkpt lat="50.51464" lon="3.03999">
        <ele>35</ele>
        <time>2025-10-17T11:57:06Z</time>
      </trkpt>
      <trkpt lat="50.51461" lon="3.03982">
        <ele>36</ele>
        <time>2025-10-17T11:57:09Z</time>
      </trkpt>
      <trkpt lat="50.51429" lon="3.03879">
        <ele>40</ele>
        <time>2025-10-17T11:57:26Z</time>
      </trkpt>
      <trkpt lat="50.51434" lon="3.03858">
        <ele>41</ele>
        <time>2025-10-17T11:57:29Z</time>
      </trkpt>
      <trkpt lat="50.5148" lon="3.03814">
        <ele>42</ele>
        <time>2025-10-17T11:57:41Z</time>
      </trkpt>
      <trkpt lat="50.51487" lon="3.03793">
        <ele>43</ele>
        <time>2025-10-17T11:57:45Z</time>
      </trkpt>
      <trkpt lat="50.51484" lon="3.03775">
        <ele>44</ele>
        <time>2025-10-17T11:57:48Z</time>
      </trkpt>
      <trkpt lat="50.51463" lon="3.03739">
        <ele>46</ele>
        <time>2025-10-17T11:57:55Z</time>
      </trkpt>
      <trkpt lat="50.51148" lon="3.03321">
        <ele>50</ele>
        <time>2025-10-17T11:59:31Z</time>
      </trkpt>
      <trkpt lat="50.51128" lon="3.03286">
        <ele>50</ele>
        <time>2025-10-17T11:59:38Z</time>
      </trkpt>
      <trkpt lat="50.51112" lon="3.03226">
        <ele>50</ele>
        <time>2025-10-17T11:59:48Z</time>
      </trkpt>
      <trkpt lat="50.51126" lon="3.03142">
        <ele>47</ele>
        <time>2025-10-17T12:00:01Z</time>
      </trkpt>
      <trkpt lat="50.5118" lon="3.03048">
        <ele>43</ele>
        <time>2025-10-17T12:00:20Z</time>
      </trkpt>
      <trkpt lat="50.51277" lon="3.02852">
        <ele>38</ele>
        <time>2025-10-17T12:00:56Z</time>
      </trkpt>
      <trkpt lat="50.51343" lon="3.0282">
        <ele>37</ele>
        <time>2025-10-17T12:01:13Z</time>
      </trkpt>
      <trkpt lat="50.51422" lon="3.02811">
        <ele>38</ele>
        <time>2025-10-17T12:01:31Z</time>
      </trkpt>
      <trkpt lat="50.51502" lon="3.02826">
        <ele>39</ele>
        <time>2025-10-17T12:01:50Z</time>
      </trkpt>
      <trkpt lat="50.51537" lon="3.0284">
        <ele>38</ele>
        <time>2025-10-17T12:01:58Z</time>
      </trkpt>
      <trkpt lat="50.51556" lon="3.02857">
        <ele>38</ele>
        <time>2025-10-17T12:02:03Z</time>
      </trkpt>
      <trkpt lat="50.51587" lon="3.02946">
        <ele>39</ele>
        <time>2025-10-17T12:02:19Z</time>
      </trkpt>
      <trkpt lat="50.51602" lon="3.02963">
        <ele>39</ele>
        <time>2025-10-17T12:02:23Z</time>
      </trkpt>
      <trkpt lat="50.51615" lon="3.02959">
        <ele>37</ele>
        <time>2025-10-17T12:02:26Z</time>
      </trkpt>
      <trkpt lat="50.51629" lon="3.02935">
        <ele>35</ele>
        <time>2025-10-17T12:02:31Z</time>
      </trkpt>
      <trkpt lat="50.51696" lon="3.02794">
        <ele>32</ele>
        <time>2025-10-17T12:02:57Z</time>
      </trkpt>
      <trkpt lat="50.51711" lon="3.02742">
        <ele>32</ele>
        <time>2025-10-17T12:03:05Z</time>
      </trkpt>
      <trkpt lat="50.51763" lon="3.02713">
        <ele>31</ele>
        <time>2025-10-17T12:03:18Z</time>
      </trkpt>
      <trkpt lat="50.51822" lon="3.02657">
        <ele>31</ele>
        <time>2025-10-17T12:03:34Z</time>
      </trkpt>
      <trkpt lat="50.51853" lon="3.0258">
        <ele>31</ele>
        <time>2025-10-17T12:03:48Z</time>
      </trkpt>
      <trkpt lat="50.51871" lon="3.02492">
        <ele>31</ele>
        <time>2025-10-17T12:04:02Z</time>
      </trkpt>
      <trkpt lat="50.51893" lon="3.02432">
        <ele>31</ele>
        <time>2025-10-17T12:04:12Z</time>
      </trkpt>
      <trkpt lat="50.51999" lon="3.02293">
        <ele>31</ele>
        <time>2025-10-17T12:04:44Z</time>
      </trkpt>
      <trkpt lat="50.52042" lon="3.02358">
        <ele>33</ele>
        <time>2025-10-17T12:04:58Z</time>
      </trkpt>
      <trkpt lat="50.52093" lon="3.02473">
        <ele>33</ele>
        <time>2025-10-17T12:05:19Z</time>
      </trkpt>
      <trkpt lat="50.52097" lon="3.02496">
        <ele>33</ele>
        <time>2025-10-17T12:05:22Z</time>
      </trkpt>
      <trkpt lat="50.52121" lon="3.02551">
        <ele>34</ele>
        <time>2025-10-17T12:05:32Z</time>
      </trkpt>
      <trkpt lat="50.52159" lon="3.02654">
        <ele>33</ele>
        <time>2025-10-17T12:05:50Z</time>
      </trkpt>
      <trkpt lat="50.52192" lon="3.02779">
        <ele>33</ele>
        <time>2025-10-17T12:06:10Z</time>
      </trkpt>
      <trkpt lat="50.52253" lon="3.02692">
        <ele>32</ele>
        <time>2025-10-17T12:06:29Z</time>
      </trkpt>
      <trkpt lat="50.52259" lon="3.02672">
        <ele>32</ele>
        <time>2025-10-17T12:06:33Z</time>
      </trkpt>
      <trkpt lat="50.5226" lon="3.02651">
        <ele>32</ele>
        <time>2025-10-17T12:06:36Z</time>
      </trkpt>
      <trkpt lat="50.52257" lon="3.02626">
        <ele>32</ele>
        <time>2025-10-17T12:06:40Z</time>
      </trkpt>
      <trkpt lat="50.52206" lon="3.02481">
        <ele>34</ele>
        <time>2025-10-17T12:07:04Z</time>
      </trkpt>
      <trkpt lat="50.52188" lon="3.02365">
        <ele>34</ele>
        <time>2025-10-17T12:07:22Z</time>
      </trkpt>
      <trkpt lat="50.52208" lon="3.02202">
        <ele>33</ele>
        <time>2025-10-17T12:07:47Z</time>
      </trkpt>
      <trkpt lat="50.52206" lon="3.02171">
        <ele>33</ele>
        <time>2025-10-17T12:07:51Z</time>
      </trkpt>
      <trkpt lat="50.5215" lon="3.02136">
        <ele>33</ele>
        <time>2025-10-17T12:08:05Z</time>
      </trkpt>
      <trkpt lat="50.52124" lon="3.02123">
        <ele>32</ele>
        <time>2025-10-17T12:08:12Z</time>
      </trkpt>
      <trkpt lat="50.52025" lon="3.02101">
        <ele>32</ele>
        <time>2025-10-17T12:08:35Z</time>
      </trkpt>
      <trkpt lat="50.52009" lon="3.02095">
        <ele>33</ele>
        <time>2025-10-17T12:08:39Z</time>
      </trkpt>
      <trkpt lat="50.51988" lon="3.02083">
        <ele>33</ele>
        <time>2025-10-17T12:08:44Z</time>
      </trkpt>
      <trkpt lat="50.51973" lon="3.02072">
        <ele>33</ele>
        <time>2025-10-17T12:08:48Z</time>
      </trkpt>
      <trkpt lat="50.51912" lon="3.01995">
        <ele>33</ele>
        <time>2025-10-17T12:09:06Z</time>
      </trkpt>
      <trkpt lat="50.51887" lon="3.01967">
        <ele>33</ele>
        <time>2025-10-17T12:09:13Z</time>
      </trkpt>
    </trkseg>
  </trk>
</gpx>